Graceful Lady — 00 — position and weather

sailwx.info

Track history (hours):
 
Tides and Currents Weather Stations Pressure Air Temp Water Temp Dewpoint Dewpoint Depression Visibility Wind Speed Wind Dir Waves Ship Positions

Graceful Lady

Last reported at 2016-Aug-25 22:33 UTC. Time now 2016-Aug-25 23:45 UTC.
Position N 37°34' E 121°25'.

Length 6 m.

Type: Pollution control. MMSI: 316014038.

Date/timePositionNaut miles runAvg speedWind from/ knotsBaromVisibWave heightAir tempDewpointWater temp
2016-Aug-25 22:33N 37°34' E 121°25'46139549.4
2016-Aug-25 22:33N 29°54' E 122°17'10477.7
2016-Aug-25 22:31N 29°55' E 122°05'460110377.6
2016-Aug-25 22:31N 37°34' E 121°26'33629471.4
2016-Aug-25 22:31N 32°02' E 120°27'1554890.3
2016-Aug-25 22:29N 29°49' E 122°01'1532270.1
2016-Aug-25 22:25N 31°59' E 120°26'6517734.6
2016-Aug-25 22:20N 23°02' E 113°31'9631252.2
2016-Aug-25 21:33N 37°34' E 121°25'466139855.2
2016-Aug-25 21:33N 29°49' E 122°12'12719875.8
2016-Aug-25 21:33N 31°44' E 121°07'6612379067.4
2016-Aug-25 21:33N 23°02' E 113°31'96428915.6
2016-Aug-25 21:31N 37°34' E 121°26'46655868.6
2016-Aug-25 21:30N 29°49' E 122°01'9 9.8
2016-Aug-25 20:33N 29°49' E 122°12'466129094.3
2016-Aug-25 20:33N 37°34' E 121°25'963866848.0
2016-Aug-25 20:33N 23°02' E 113°31'61230606.5
2016-Aug-25 20:32N 29°49' E 122°01'46624647.9
2016-Aug-25 20:31N 37°34' E 121°26'339907.7
2016-Aug-25 20:08N 32°03' E 119°56'1672114.3
2016-Aug-25 20:04N 29°54' E 121°59'6141205.6
2016-Aug-25 19:33N 23°02' E 113°31'963577901.9
2016-Aug-25 19:33N 37°34' E 121°25'46688328.8
2016-Aug-25 19:33N 29°49' E 122°12'17610715.4
2016-Aug-25 19:32N 32°02' E 119°57'34020750.2
2016-Aug-25 19:31N 37°34' E 121°26'3604741.4
2016-Aug-25 19:26N 31°35' E 121°19'660746.3
2016-Aug-25 18:33N 23°02' E 113°31'6222238797.8
2016-Aug-25 18:33N 29°51' E 122°13'17213462.4
2016-Aug-25 18:32N 31°60' E 119°60'341153639.6
2016-Aug-25 18:32N 37°34' E 121°25'145.8
2016-Aug-25 18:31N 37°34' E 121°26'1 1.1
2016-Aug-25 17:32N 37°34' E 121°25'139.7
2016-Aug-25 17:31N 37°34' E 121°26'3436820.8
2016-Aug-25 17:28N 31°58' E 120°03'639164347.6
2016-Aug-25 17:28N 23°02' E 113°31'6258856.6
2016-Aug-25 17:23N 29°51' E 122°18'465558.4
2016-Aug-25 16:33N 37°34' E 121°25'465334632.6
2016-Aug-25 16:33N 29°51' E 122°18'16935749.7
2016-Aug-25 16:33N 31°57' E 120°07'3439362.3
2016-Aug-25 16:31N 37°34' E 121°26'96496386.9
2016-Aug-25 16:30N 23°02' E 113°31'6125845.4
2016-Aug-25 16:24N 29°49' E 122°01'3534369.8
2016-Aug-25 16:19N 24°30' E 119°12'353465.1
2016-Aug-25 15:34N 29°49' E 122°01'465128887.1
2016-Aug-25 15:33N 37°34' E 121°25'46583660.1
2016-Aug-25 15:33N 29°51' E 122°18'16625915.2
2016-Aug-25 15:33N 31°56' E 120°11'44811510.8
2016-Aug-25 15:30N 24°32' E 119°05'319574413.3
2016-Aug-25 15:30N 23°02' E 113°31'9646884.9
2016-Aug-25 15:22N 37°34' E 121°26'33912085.8
2016-Aug-25 15:20N 31°59' E 120°26'0 0.0
2016-Aug-25 14:33N 31°59' E 120°26'651167402.1
2016-Aug-25 14:33N 23°02' E 113°31'645580158.3
2016-Aug-25 14:33N 31°57' E 120°16'34221574.2
2016-Aug-25 14:32N 37°34' E 121°25'144.4
2016-Aug-25 14:31N 37°34' E 121°26'46615519.4
2016-Aug-25 14:29N 29°49' E 122°01'151054.4
2016-Aug-25 14:28N 29°51' E 122°18'465509.5
2016-Aug-25 13:33N 37°34' E 121°25'338152212.7
2016-Aug-25 13:33N 31°60' E 120°21'16318364.1
2016-Aug-25 13:33N 29°51' E 122°18'15995.9
2016-Aug-25 13:32N 29°49' E 122°01'612146915.2
2016-Aug-25 13:32N 23°02' E 113°31'96473829.1
2016-Aug-25 13:31N 37°34' E 121°26'3395868.6
2016-Aug-25 13:27N 31°59' E 120°26'651722.2
2016-Aug-25 12:33N 23°02' E 113°31'963165115.8
2016-Aug-25 12:33N 37°34' E 121°25'334240834.0
2016-Aug-25 12:33N 32°03' E 120°25'16127552.8
2016-Aug-25 12:32N 29°54' E 122°17'46216813.8
2016-Aug-25 12:31N 37°34' E 121°26'33923477.7
2016-Aug-25 12:30N 31°59' E 120°26'153763.0
2016-Aug-25 12:18N 29°49' E 122°01'465628.0
2016-Aug-25 11:33N 37°34' E 121°25'458549766.7
2016-Aug-25 11:33N 29°58' E 122°15'45810575.7
2016-Aug-25 11:31N 37°34' E 121°26'9645313.9
2016-Aug-25 11:20N 23°02' E 113°31'6514212.8
2016-Aug-25 11:11N 31°58' E 120°26'339545.6
2016-Aug-25 10:33N 37°34' E 121°25'458103079.9
2016-Aug-25 10:33N 29°58' E 122°15'627376072.4
2016-Aug-25 10:33N 23°02' E 113°31'96426288.1
2016-Aug-25 10:31N 37°34' E 121°26'458479.2
2016-Aug-25 09:33N 29°58' E 122°15'458126870.9
2016-Aug-25 09:33N 37°34' E 121°25'96347499.3
2016-Aug-25 09:32N 23°02' E 113°31'96448872.8
2016-Aug-25 09:31N 37°34' E 121°26'458479.3
2016-Aug-25 08:33N 29°58' E 122°15'45868723.5
2016-Aug-25 08:33N 37°34' E 121°25'9631155836.7
2016-Aug-25 08:33N 23°02' E 113°31'96415286.4
2016-Aug-25 08:29N 37°34' E 121°26'4661617.9
2016-Aug-25 08:12N 29°49' E 122°01'1522.9
2016-Aug-25 07:33N 29°58' E 122°15'458235617.4
2016-Aug-25 07:33N 37°34' E 121°25'96365424.0
2016-Aug-25 07:32N 23°02' E 113°31'96417979.3
2016-Aug-25 07:29N 37°34' E 121°26'1 1.2
2016-Aug-25 06:34N 37°34' E 121°25'963495344.6
2016-Aug-25 06:33N 23°02' E 113°31'62722791.0
2016-Aug-25 06:32N 29°58' E 122°15'45810713.3
2016-Aug-25 06:29N 37°34' E 121°26'3391424.4
2016-Aug-25 06:15N 31°59' E 120°26'339200.0
2016-Aug-25 04:33N 37°34' E 121°25'159.7
2016-Aug-25 04:32N 37°34' E 121°26'33917194.1
2016-Aug-25 04:31N 31°59' E 120°26'15334361.9
2016-Aug-25 04:31N 29°58' E 122°15'458477.0
2016-Aug-25 03:33N 37°34' E 121°25'45874981.4
2016-Aug-25 03:33N 29°58' E 122°15'4587782.8
2016-Aug-25 03:29N 37°34' E 121°26'9637439.0
2016-Aug-25 03:21N 23°03' E 113°31'6122569.4
2016-Aug-25 03:07N 29°54' E 121°58'461818.7
2016-Aug-25 02:33N 37°34' E 121°25'45829456.6
2016-Aug-25 02:32N 29°58' E 122°15'4588418.1
2016-Aug-25 02:29N 37°34' E 121°26'96328649.3
2016-Aug-25 02:27N 23°03' E 113°31'626695.0
2016-Aug-25 01:33N 29°58' E 122°15'458117830.9
2016-Aug-25 01:33N 37°34' E 121°25'190.0
2016-Aug-25 01:32N 37°34' E 121°26'3392517.4
2016-Aug-25 01:24N 31°59' E 120°26'6511919.4
2016-Aug-25 01:04N 23°02' E 113°31'0 0.0
2016-Aug-25 00:33N 23°02' E 113°31'62714942.9
2016-Aug-25 00:31N 29°58' E 122°15'45818133.3
2016-Aug-25 00:29N 37°34' E 121°26'5873140945.4
2016-Aug-25 00:27N 33°46' W 118°11'6118265354.4
2016-Aug-25 00:25N 31°59' E 120°26'651751.2
2016-Aug-24 23:33N 23°02' E 113°31'66146642.7
2016-Aug-24 23:33N 31°41' E 121°11'35363580.9
2016-Aug-24 23:32N 37°34' E 121°26'5873251679.3
2016-Aug-24 23:31N 33°45' W 118°12'609799321.3
2016-Aug-24 23:27N 29°58' E 122°15'1532380.2
2016-Aug-24 23:23N 31°59' E 120°26'339398.5
2016-Aug-24 22:32N 37°34' E 121°26'466119741.5
2016-Aug-24 22:32N 29°49' E 122°01'6117595132.2
2016-Aug-24 22:31N 33°45' W 118°09'6091498327.1
2016-Aug-24 22:31N 31°37' E 121°17'661148676.4
2016-Aug-24 22:30N 23°02' E 113°31'65514210.1
2016-Aug-24 22:28N 31°21' E 121°27'655726.5
2016-Aug-24 21:33N 23°02' E 113°31'65998918.1
2016-Aug-24 21:33N 31°32' E 121°21'36225583.0
2016-Aug-24 21:32N 37°34' E 121°26'466111758.7
2016-Aug-24 21:32N 29°49' E 122°01'971941.5
2016-Aug-24 21:29N 31°22' E 121°28'9330541.7
2016-Aug-24 21:29N 29°58' E 122°15'15313410.8
2016-Aug-24 21:28N 31°59' E 120°26'651714.9
2016-Aug-24 20:33N 23°02' E 113°31'62715891.8
2016-Aug-24 20:31N 29°56' E 122°17'964004.4
2016-Aug-24 20:30N 31°22' E 121°28'37353645.3
2016-Aug-24 20:29N 37°34' E 121°26'46610609.9
2016-Aug-24 20:27N 29°49' E 122°01'97108.1
2016-Aug-24 19:33N 31°22' E 121°29'65776248.7
2016-Aug-24 19:32N 23°02' E 113°31'964247861.3
2016-Aug-24 19:32N 37°34' E 121°26'3531277.1
2016-Aug-24 19:16N 31°42' E 121°10'17712.1
2016-Aug-24 19:14N 31°30' E 121°23'561610.3
2016-Aug-24 19:12N 31°59' E 120°26'6511010.1
2016-Aug-24 18:33N 23°02' E 113°31'964867490.4
2016-Aug-24 18:33N 37°34' E 121°26'354159149.8
2016-Aug-24 18:33N 31°41' E 121°11'15110.5
2016-Aug-24 18:25N 31°30' E 121°23'109460.7
2016-Aug-24 18:11N 29°51' E 122°18'1344560.9
2016-Aug-24 18:09N 31°47' E 120°59'132223.1
2016-Aug-24 17:33N 29°51' E 122°14'464835757.4
2016-Aug-24 17:33N 37°34' E 121°26'964115664.1
2016-Aug-24 17:33N 23°02' E 113°31'6596292.1
2016-Aug-24 17:27N 31°30' E 121°23'241435.2
2016-Aug-24 17:26N 31°46' E 121°03'12216933.2
2016-Aug-24 17:25N 29°54' E 121°59'1213.8
2016-Aug-24 16:33N 29°49' E 122°12'619185784.7
2016-Aug-24 16:33N 23°02' E 113°31'66014476.9
2016-Aug-24 16:30N 31°24' E 121°31'931051.9
2016-Aug-24 16:25N 29°54' E 121°59'114739.7
2016-Aug-24 16:16N 31°41' E 121°11'1 1.5
2016-Aug-24 15:34N 31°41' E 121°12'1810775.4
2016-Aug-24 15:33N 31°28' E 121°27'10647627.6
2016-Aug-24 15:33N 29°49' E 122°12'61934299.0
2016-Aug-24 15:32N 23°02' E 113°31'96421150.0
2016-Aug-24 15:29N 37°35' E 121°23'3656702.9
2016-Aug-24 15:26N 31°30' E 121°23'56391.7
2016-Aug-24 15:18N 31°59' E 120°26'42320.2
2016-Aug-24 15:10N 31°41' E 121°11'4 6.2
2016-Aug-24 14:33N 31°38' E 121°14'1017605.8
2016-Aug-24 14:33N 31°31' E 121°22'1117957.0
2016-Aug-24 14:33N 29°49' E 122°12'467240260.8
2016-Aug-24 14:32N 37°35' E 121°23'3547005.4
2016-Aug-24 14:29N 31°41' E 121°11'15481.5
2016-Aug-24 14:28N 31°30' E 121°23'65916473.7
2016-Aug-24 14:25N 23°02' E 113°31'6124295.7
2016-Aug-24 14:17N 29°49' E 122°01'1531801.2
2016-Aug-24 14:12N 31°59' E 120°26'613783052.7
2016-Aug-24 14:07N 33°37' W 117°55'610810880.9
2016-Aug-24 13:33N 31°38' E 121°14'11818536.3
2016-Aug-24 13:33N 29°51' E 122°14'62210564.7
2016-Aug-24 13:29N 23°02' E 113°31'65945619.2
2016-Aug-24 13:29N 31°30' E 121°23'561127.2
2016-Aug-24 13:26N 31°59' E 120°26'491052.7
2016-Aug-24 13:23N 31°36' E 121°17'793.7
2016-Aug-24 13:18N 31°41' E 121°11'1115.1
2016-Aug-24 12:33N 31°32' E 121°20'81095.9
2016-Aug-24 12:33N 31°38' E 121°14'357106960.0
2016-Aug-24 12:32N 37°35' E 121°23'46623948.0
2016-Aug-24 12:31N 29°51' E 122°18'62524719.0
2016-Aug-24 12:30N 23°02' E 113°31'660216090.4
2016-Aug-24 12:30N 31°41' E 121°11'262.5
2016-Aug-24 12:27N 31°39' E 121°13'3 3.0
2016-Aug-24 11:33N 31°38' E 121°15'35732938.9
2016-Aug-24 11:32N 37°35' E 121°23'96456862.7
2016-Aug-24 11:31N 23°02' E 113°31'66051674.2
2016-Aug-24 11:31N 31°41' E 121°11'278.9
2016-Aug-24 11:30N 31°40' E 121°12'1223062.3
2016-Aug-24 11:27N 29°51' E 122°18'112126.0
2016-Aug-24 10:34N 31°33' E 121°21'1073995.3
2016-Aug-24 10:32N 29°57' E 122°16'46011111.3
2016-Aug-24 10:29N 37°35' E 121°23'8044881.8
2016-Aug-24 10:20N 24°29' E 118°04'456593.5
2016-Aug-24 09:34N 31°27' E 121°29'46120467.2
2016-Aug-24 09:32N 24°25' E 118°00'26052089.1
2016-Aug-24 09:32N 23°02' E 113°31'62720145.8
2016-Aug-24 09:30N 29°58' E 122°15'11838656.5
2016-Aug-24 09:30N 31°42' E 121°10'35363566.0
2016-Aug-24 09:29N 37°35' E 121°23'35412259.5
2016-Aug-24 09:28N 31°41' E 121°11'42487.0
2016-Aug-24 09:23N 31°59' E 120°26'473568.9
2016-Aug-24 08:33N 24°25' E 117°52'40641797.0
2016-Aug-24 08:32N 29°58' E 122°15'62716838.3
2016-Aug-24 08:30N 23°02' E 113°31'96317170.9
2016-Aug-24 08:27N 37°35' E 121°23'35428333.1
2016-Aug-24 08:26N 31°41' E 121°11'642.0
2016-Aug-24 08:17N 31°45' E 121°05'341322.8
2016-Aug-24 08:15N 31°24' E 121°37'97895.7
2016-Aug-24 08:09N 29°49' E 122°01'6121036.7
2016-Aug-24 07:34N 23°02' E 113°31'96460860.4
2016-Aug-24 07:33N 37°35' E 121°23'45944666.1
2016-Aug-24 07:32N 29°58' E 122°15'9210073.9
2016-Aug-24 07:31N 31°24' E 121°37'28370.1
2016-Aug-24 07:27N 31°41' E 121°11'119431.8
2016-Aug-24 07:10N 29°49' E 122°01'1261474.6
2016-Aug-24 07:05N 31°45' E 121°04'6601236.2
2016-Aug-24 06:33N 23°02' E 113°31'65155808.5
2016-Aug-24 06:32N 31°59' E 120°26'428360.7
2016-Aug-24 06:32N 31°41' E 121°11'11760126.4
2016-Aug-24 06:32N 29°58' E 122°15'459330529.2
2016-Aug-24 06:32N 37°35' E 121°23'459231.1
2016-Aug-24 04:33N 29°58' E 122°15'459206580.8
2016-Aug-24 04:33N 37°35' E 121°23'35460716.9
2016-Aug-24 04:32N 31°41' E 121°11'6606508.8
2016-Aug-24 04:26N 23°02' E 113°31'6511899.7
2016-Aug-24 04:06N 31°59' E 120°26'6501214.0
2016-Aug-24 03:34N 23°03' E 113°31'65960873.6
2016-Aug-24 03:33N 31°41' E 121°11'11716832.4
2016-Aug-24 03:32N 29°58' E 122°15'4594708.5
2016-Aug-24 03:27N 37°35' E 121°23'459517.0
2016-Aug-24 02:33N 29°58' E 122°15'45938434.6
2016-Aug-24 02:33N 37°35' E 121°23'96312693.0
2016-Aug-24 02:28N 23°03' E 113°31'65950512.1
2016-Aug-24 02:27N 31°41' E 121°11'659733.2
2016-Aug-24 01:33N 23°03' E 113°31'626204914.8
2016-Aug-24 01:33N 29°58' E 122°15'4597795.6
2016-Aug-24 01:30N 37°35' E 121°23'3391725.7
2016-Aug-24 01:18N 31°59' E 120°26'650876.9
2016-Aug-24 00:33N 23°03' E 113°31'626187839.7
2016-Aug-24 00:33N 29°58' E 122°15'45955088.2
2016-Aug-24 00:33N 37°35' E 121°23'459465.7
2016-Aug-23 23:33N 29°58' E 122°15'45931782.1
2016-Aug-23 23:33N 37°35' E 121°23'459465.8
2016-Aug-23 22:33N 29°58' E 122°15'45933728.4
2016-Aug-23 22:33N 37°35' E 121°23'4663228.4
2016-Aug-23 22:24N 29°49' E 122°01'613618736.0
2016-Aug-23 22:04N 33°35' W 117°52'510.3
2016-Aug-23 21:33N 33°30' W 117°48'59031634717.9
2016-Aug-23 21:33N 37°35' E 121°23'45955088.2
2016-Aug-23 21:32N 29°58' E 122°15'151887.6
2016-Aug-23 21:32N 29°49' E 122°01'153682.4
2016-Aug-23 21:18N 31°59' E 120°26'65145959.9
2016-Aug-23 21:17N 23°02' E 113°31'627856.4
2016-Aug-23 20:33N 29°58' E 122°15'627451327.1
2016-Aug-23 20:33N 23°02' E 113°31'96473809.8
2016-Aug-23 20:33N 37°35' E 121°23'46644177.7
2016-Aug-23 20:32N 29°49' E 122°01'1533868.8
2016-Aug-23 20:30N 31°59' E 120°26'615351155.8
2016-Aug-23 20:22N 33°28' W 117°42'68368314.5
2016-Aug-23 19:33N 23°02' E 113°31'964138761.6
2016-Aug-23 19:33N 37°35' E 121°23'459150242.5
2016-Aug-23 19:32N 29°58' E 122°15'151100.8
2016-Aug-23 19:32N 29°49' E 122°01'111583.5
2016-Aug-23 19:20N 31°35' E 121°19'512902.0
2016-Aug-23 19:19N 31°59' E 120°26'615031406.4
2016-Aug-23 19:07N 33°28' W 117°44'612910827.3
2016-Aug-23 18:33N 29°58' E 122°15'151887.1
2016-Aug-23 18:33N 29°49' E 122°01'46672989.2
2016-Aug-23 18:33N 37°35' E 121°23'343137346.7
2016-Aug-23 18:32N 31°56' E 120°12'64227864.3
2016-Aug-23 18:31N 23°02' E 113°31'0 0.0
2016-Aug-23 17:33N 23°02' E 113°31'96470796.8
2016-Aug-23 17:33N 37°35' E 121°23'34317410.4
2016-Aug-23 17:31N 31°56' E 120°12'1599671.2
2016-Aug-23 17:30N 29°58' E 122°15'15251.6
2016-Aug-23 17:27N 29°49' E 122°01'991785.9
2016-Aug-23 17:24N 31°25' E 121°31'311.7
2016-Aug-23 17:08N 31°27' E 121°29'611.1
2016-Aug-23 16:34N 31°21' E 121°31'657473133.1
2016-Aug-23 16:33N 23°02' E 113°31'612220392.6
2016-Aug-23 16:33N 29°49' E 122°01'46639970.3
2016-Aug-23 16:33N 37°35' E 121°23'46219100.5
2016-Aug-23 16:31N 29°54' E 121°59'942050.0
2016-Aug-23 16:28N 31°25' E 121°32'754478.7
2016-Aug-23 16:27N 31°56' E 120°12'15935662.6
2016-Aug-23 16:27N 29°58' E 122°15'5055829.9
2016-Aug-23 16:22N 38°20' E 121°11'6 7.6
2016-Aug-23 15:33N 38°14' E 121°13'50638778.5
2016-Aug-23 15:33N 29°49' E 122°01'466559584.1
2016-Aug-23 15:33N 37°35' E 121°23'4597869.4
2016-Aug-23 15:29N 29°58' E 122°15'15816300.1
2016-Aug-23 15:28N 31°56' E 120°12'642100553.1
2016-Aug-23 15:28N 23°02' E 113°31'61412629.9
2016-Aug-23 15:25N 29°54' E 121°59'1517.2
2016-Aug-23 14:32N 29°55' E 122°16'162917.9
2016-Aug-23 14:22N 31°56' E 120°12'34316705.2
2016-Aug-23 14:21N 37°35' E 121°23'46683938.7
2016-Aug-23 14:20N 29°49' E 122°01'4977094.9
2016-Aug-23 14:16N 38°05' E 121°16'5 7.7
2016-Aug-23 13:33N 37°59' E 121°18'36533729.6
2016-Aug-23 13:33N 31°60' E 119°60'175104879.4
2016-Aug-23 13:33N 29°51' E 122°18'466335271.7
2016-Aug-23 13:33N 37°35' E 121°23'3434612.5
2016-Aug-23 13:28N 31°56' E 120°12'343377.2
2016-Aug-23 12:34N 37°35' E 121°23'46667056.7
2016-Aug-23 12:33N 29°51' E 122°18'1655499.4
2016-Aug-23 12:31N 31°56' E 120°12'5593.7
2016-Aug-23 12:31N 31°57' E 120°07'36010696.9
2016-Aug-23 12:29N 37°51' E 121°21'3911855.7
2016-Aug-23 12:16N 31°20' E 121°39'374526.5
2016-Aug-23 11:33N 37°34' E 121°25'101460.1
2016-Aug-23 11:33N 37°44' E 121°23'47427972.1
2016-Aug-23 11:32N 29°52' E 122°17'1001157.6
2016-Aug-23 11:27N 31°25' E 121°32'731963.5
2016-Aug-23 11:25N 31°57' E 120°15'346405.5
2016-Aug-23 10:33N 37°38' E 121°26'1995.7
2016-Aug-23 10:33N 37°37' E 121°26'46111852.2
2016-Aug-23 10:31N 29°58' E 122°15'460473.7
2016-Aug-23 09:33N 37°36' E 121°25'46037625.8
2016-Aug-23 09:32N 29°58' E 122°15'46027592.7
2016-Aug-23 09:31N 37°36' E 121°25'3417429.4
2016-Aug-23 09:28N 31°59' E 120°26'3435212.0
2016-Aug-23 09:24N 37°38' E 121°25'4707451.1
2016-Aug-23 09:21N 29°49' E 122°01'467593.8
2016-Aug-23 08:33N 37°36' E 121°25'353.1
2016-Aug-23 08:30N 37°38' E 121°25'96740026.8
2016-Aug-23 08:29N 23°02' E 113°31'627205153.7
2016-Aug-23 08:29N 29°58' E 122°15'4604180.7
2016-Aug-23 08:22N 37°36' E 121°25'364445.5
2016-Aug-23 07:33N 31°31' E 121°20'65884634.5
2016-Aug-23 07:33N 23°02' E 113°31'96725987.5
2016-Aug-23 07:30N 37°38' E 121°25'370.4
2016-Aug-23 07:28N 37°36' E 121°25'4605500.2
2016-Aug-23 07:23N 29°58' E 122°15'153919.4
2016-Aug-23 07:13N 31°59' E 120°26'343518.5
2016-Aug-23 06:33N 37°38' E 121°25'967151405.6
2016-Aug-23 06:33N 23°02' E 113°31'96391276.2
2016-Aug-23 06:32N 37°34' E 121°25'33971740.8
2016-Aug-23 06:32N 31°59' E 120°26'34020427.7
2016-Aug-23 06:31N 37°36' E 121°25'3531205.1
2016-Aug-23 06:14N 31°43' E 121°09'661987.7
2016-Aug-23 05:33N 23°02' E 113°31'969581433.4
2016-Aug-23 05:33N 37°40' E 121°24'61282.5
2016-Aug-23 05:33N 37°34' E 121°25'33911957.0
2016-Aug-23 05:31N 31°59' E 120°26'340111423.7
2016-Aug-23 05:31N 37°36' E 121°25'9651003.2
2016-Aug-23 04:33N 23°02' E 113°31'975501346.0
2016-Aug-23 04:33N 37°48' E 121°23'35257607.3
2016-Aug-23 04:33N 31°59' E 120°26'1536041.6
2016-Aug-23 04:31N 29°58' E 122°15'4608403.9
2016-Aug-23 04:28N 37°36' E 121°25'2 1.9
2016-Aug-23 03:34N 37°34' E 121°25'2137284.5
2016-Aug-23 03:33N 37°54' E 121°17'19491.6
2016-Aug-23 03:31N 37°36' E 121°25'46019946.8
2016-Aug-23 03:30N 29°58' E 122°15'6275599.8
2016-Aug-23 03:23N 23°02' E 113°31'9631163.2
2016-Aug-23 02:33N 37°34' E 121°25'352140761.9
2016-Aug-23 02:33N 31°42' E 121°09'37421395.7
2016-Aug-23 02:32N 37°57' E 121°08'25215.1
2016-Aug-23 02:25N 37°36' E 121°25'4603728.8
2016-Aug-23 02:18N 29°58' E 122°15'485657.1
2016-Aug-23 01:33N 37°58' E 120°58'317966.9
2016-Aug-23 01:33N 37°36' E 121°25'0 1.4
2016-Aug-23 01:31N 37°36' E 121°25'0 0.0
2016-Aug-23 00:33N 37°36' E 121°25'0 1.5
2016-Aug-23 00:31N 37°36' E 121°25'37214875.5
2016-Aug-23 00:30N 31°24' E 121°37'31150.9
2016-Aug-23 00:17N 31°42' E 121°08'354481.4
2016-Aug-22 23:33N 37°36' E 121°25'37231135.1
2016-Aug-22 23:33N 31°24' E 121°37'31774.8
2016-Aug-22 23:30N 31°42' E 121°08'35410116.4
2016-Aug-22 23:28N 37°36' E 121°25'460413895.9
2016-Aug-22 23:28N 29°58' E 122°15'112506.2
2016-Aug-22 23:15N 31°37' E 121°16'388562.8
2016-Aug-22 22:33N 38°03' E 120°26'404132172.6
2016-Aug-22 22:33N 31°24' E 121°37'9230126.2
2016-Aug-22 22:33N 29°58' E 122°15'460110372.6
2016-Aug-22 22:33N 37°36' E 121°25'0 1.7
2016-Aug-22 22:31N 37°36' E 121°25'361432947.8
2016-Aug-22 22:31N 31°35' E 121°19'6615530.3
2016-Aug-22 22:24N 23°02' E 113°31'9651146.8
2016-Aug-22 21:33N 37°35' E 121°25'61220707.9
2016-Aug-22 21:33N 38°05' E 120°17'6173300.5
2016-Aug-22 21:33N 37°36' E 121°25'46048693.8
2016-Aug-22 21:33N 29°58' E 122°15'1197009.9
2016-Aug-22 21:32N 31°42' E 121°08'319157.6
2016-Aug-22 21:32N 31°24' E 121°37'9715806.1
2016-Aug-22 21:31N 29°49' E 122°01'507526.0
2016-Aug-22 20:33N 38°07' E 120°09'6830548.1
2016-Aug-22 20:33N 37°36' E 121°25'35498053.0
2016-Aug-22 20:33N 31°42' E 121°08'357183681.7
2016-Aug-22 20:33N 37°39' E 121°27'37510969.7
2016-Aug-22 20:31N 31°24' E 121°37'923811.9
2016-Aug-22 20:30N 29°58' E 122°15'62732238.5
2016-Aug-22 20:28N 23°02' E 113°31'61217773.8
2016-Aug-22 20:26N 29°49' E 122°01'510578.8
2016-Aug-22 19:33N 38°09' E 120°01'7444297.5
2016-Aug-22 19:33N 37°46' E 121°29'113568.8
2016-Aug-22 19:33N 37°36' E 121°25'35484977.8
2016-Aug-22 19:33N 31°42' E 121°08'119106906.4
2016-Aug-22 19:33N 29°58' E 122°15'9222107.9
2016-Aug-22 19:33N 31°24' E 121°37'663149148.1
2016-Aug-22 19:32N 23°02' E 113°31'966984.7
2016-Aug-22 18:33N 38°10' E 119°52'507101379.2
2016-Aug-22 18:33N 29°58' E 122°15'460165558.9
2016-Aug-22 18:33N 37°36' E 121°25'35470816.1
2016-Aug-22 18:33N 31°42' E 121°08'660297025.2
2016-Aug-22 18:33N 23°02' E 113°31'61222720.9
2016-Aug-22 18:31N 29°49' E 122°01'97915.6
2016-Aug-22 18:25N 31°24' E 121°37'418490.9
2016-Aug-22 17:33N 38°12' E 119°42'899657.4
2016-Aug-22 17:33N 37°36' E 121°25'3542747.2
2016-Aug-22 17:25N 31°42' E 121°08'302030.6
2016-Aug-22 17:24N 31°24' E 121°37'97754.7
2016-Aug-22 17:17N 29°49' E 122°01'467650.4
2016-Aug-22 16:34N 37°36' E 121°25'9653474057.7
2016-Aug-22 16:33N 23°02' E 113°31'66030078.5
2016-Aug-22 16:32N 31°42' E 121°08'39865203.5
2016-Aug-22 16:32N 38°12' E 119°32'4217220.5
2016-Aug-22 16:28N 31°24' E 121°37'372403.5
2016-Aug-22 15:33N 37°36' E 121°25'37260847.9
2016-Aug-22 15:33N 31°24' E 121°37'301261.8
2016-Aug-22 15:31N 31°42' E 121°08'66019477.5
2016-Aug-22 15:29N 23°02' E 113°31'6272018.5
2016-Aug-22 15:11N 29°58' E 122°15'460740.4
2016-Aug-22 14:33N 37°36' E 121°25'460413913.3
2016-Aug-22 14:33N 29°58' E 122°15'929749.2
2016-Aug-22 14:33N 31°24' E 121°37'43111842.1
2016-Aug-22 14:30N 38°18' E 119°10'3806240.5
2016-Aug-22 14:27N 32°04' E 120°32'18533.0
2016-Aug-22 14:25N 31°56' E 120°12'5019910.7
2016-Aug-22 14:25N 31°42' E 121°08'119139.3
2016-Aug-22 13:33N 29°58' E 122°15'46091981.9
2016-Aug-22 13:33N 37°36' E 121°25'123442663.9
2016-Aug-22 13:33N 38°18' E 118°59'38743525.2
2016-Aug-22 13:33N 31°56' E 120°12'1536621.8
2016-Aug-22 13:31N 29°54' E 121°59'9230020.5
2016-Aug-22 13:31N 31°24' E 121°37'311465.2
2016-Aug-22 13:30N 31°42' E 121°08'38460.9
2016-Aug-22 13:25N 32°04' E 120°32'1541788.1
2016-Aug-22 13:20N 29°49' E 122°01'6122550.9
2016-Aug-22 13:05N 23°02' E 113°31'6271184.0
2016-Aug-22 12:33N 29°58' E 122°15'119427682.8
2016-Aug-22 12:33N 31°42' E 121°08'3113736.4
2016-Aug-22 12:33N 31°24' E 121°37'37278755.8
2016-Aug-22 12:33N 37°36' E 121°25'674632.5
2016-Aug-22 12:32N 38°41' E 121°42'41122786.8
2016-Aug-22 12:31N 31°56' E 120°12'15717166.5
2016-Aug-22 12:31N 29°49' E 122°01'61259551.2
2016-Aug-22 12:30N 23°01' E 113°32'6583516.8
2016-Aug-22 12:19N 32°04' E 120°32'158210.4
2016-Aug-22 11:34N 29°53' E 122°16'536964073.5
2016-Aug-22 11:34N 38°48' E 121°44'7510782.8
2016-Aug-22 11:33N 37°35' E 121°25'37147710.3
2016-Aug-22 11:33N 31°24' E 121°37'312442.0
2016-Aug-22 11:32N 31°42' E 121°08'5013794.0
2016-Aug-22 11:32N 31°56' E 120°12'1573045.6
2016-Aug-22 11:29N 29°49' E 122°01'728.2
2016-Aug-22 11:13N 29°55' E 122°07'53432590.4
2016-Aug-22 11:12N 38°18' E 118°31'6 9.3
2016-Aug-22 10:33N 38°17' E 118°23'146524083.8
2016-Aug-22 10:33N 37°41' E 121°22'47280938.6
2016-Aug-22 10:33N 29°51' E 122°18'15701.2
2016-Aug-22 10:32N 29°49' E 122°01'157141607.7
2016-Aug-22 10:32N 31°56' E 120°12'791165.5
2016-Aug-22 10:28N 31°24' E 121°37'312388.9
2016-Aug-22 10:27N 31°42' E 121°08'125140.1
2016-Aug-22 09:33N 29°52' E 122°17'9618116.5
2016-Aug-22 09:33N 31°22' E 121°39'44870073.9
2016-Aug-22 09:33N 38°16' E 118°12'14748043.3
2016-Aug-22 09:33N 37°46' E 121°15'364655647.8
2016-Aug-22 09:33N 31°42' E 121°08'306454.7
2016-Aug-22 09:32N 31°24' E 121°37'793136.9
2016-Aug-22 09:31N 31°56' E 120°12'7982.7
2016-Aug-22 08:33N 31°24' E 121°37'387174218.2
2016-Aug-22 08:33N 37°50' E 121°08'35716903.3
2016-Aug-22 08:32N 31°56' E 120°12'50467.2
2016-Aug-22 08:25N 31°42' E 121°08'1241180.1
2016-Aug-22 08:19N 29°53' E 122°18'415544.2
2016-Aug-22 07:33N 36°48' E 122°28'41543953.7
2016-Aug-22 07:33N 29°53' E 122°18'9724999.7
2016-Aug-22 07:33N 31°24' E 121°37'79819.7
2016-Aug-22 07:27N 31°56' E 120°12'50219.6
2016-Aug-22 07:13N 31°42' E 121°08'37415311.1
2016-Aug-22 07:12N 37°56' E 120°59'3533189.3
2016-Aug-22 07:05N 32°04' E 120°31'309580.4
2016-Aug-22 06:33N 36°55' E 122°37'10326416.4
2016-Aug-22 06:33N 37°58' E 120°54'35524543.1
2016-Aug-22 06:32N 32°04' E 120°31'392913.3
2016-Aug-22 06:31N 31°42' E 121°08'50612.3
2016-Aug-22 06:26N 31°56' E 120°12'794456.9
2016-Aug-22 06:25N 31°24' E 121°37'345395.5
2016-Aug-22 05:33N 37°05' E 122°40'33262860.8
2016-Aug-22 05:33N 31°56' E 120°12'792852.4
2016-Aug-22 05:31N 31°24' E 121°37'301586.3
2016-Aug-22 05:30N 31°42' E 121°08'0 0.0
2016-Aug-22 04:33N 31°42' E 121°08'502242.4
2016-Aug-22 04:32N 31°56' E 120°12'5051.0
2016-Aug-22 03:33N 31°42' E 121°08'50676.9
2016-Aug-22 03:29N 31°56' E 120°12'6150112377.8
2016-Aug-22 03:25N 33°37' W 117°55'61507097.9
2016-Aug-22 02:33N 31°56' E 120°12'5012813.6
2016-Aug-22 02:33N 31°42' E 121°08'3861362.7
2016-Aug-22 02:16N 38°05' E 120°15'386533.2
2016-Aug-22 01:33N 31°42' E 121°08'501645.8
2016-Aug-22 01:31N 31°56' E 120°12'165635.2
2016-Aug-22 01:15N 29°46' E 122°11'1070.5
2016-Aug-22 01:07N 29°53' E 122°18'2 3.6
2016-Aug-22 00:33N 29°54' E 122°16'121265.9
2016-Aug-22 00:33N 29°42' E 122°16'1712905.1
2016-Aug-22 00:29N 31°56' E 120°12'50468.1
2016-Aug-22 00:23N 31°42' E 121°09'117710.6
2016-Aug-22 00:13N 29°54' E 121°59'913.9
2016-Aug-21 23:33N 29°52' E 122°09'12211275.9
2016-Aug-21 23:33N 31°42' E 121°09'423201.7
2016-Aug-21 23:32N 32°03' E 120°26'157360.5
2016-Aug-21 23:06N 29°49' E 122°01'122218.4
2016-Aug-21 22:33N 31°42' E 121°09'12210674.0
2016-Aug-21 22:32N 29°49' E 122°01'7246.8
2016-Aug-21 22:30N 29°51' E 122°09'160192123.0
2016-Aug-21 22:30N 31°56' E 120°12'160169.8
2016-Aug-21 21:33N 29°51' E 122°09'12344111.5
2016-Aug-21 21:33N 31°42' E 121°09'505004.6
2016-Aug-21 21:33N 31°56' E 120°12'4145.4
2016-Aug-21 21:31N 31°57' E 120°17'1563785.9
2016-Aug-21 21:29N 29°49' E 122°01'7 8.0
2016-Aug-21 20:33N 29°51' E 122°09'93973.7
2016-Aug-21 20:33N 29°44' E 122°14'1702176.0
2016-Aug-21 20:29N 31°56' E 120°09'531896.9
2016-Aug-21 20:27N 31°43' E 121°09'12224332.8
2016-Aug-21 20:27N 29°49' E 122°01'1574391.6
2016-Aug-21 20:25N 31°56' E 120°12'42550.9
2016-Aug-21 20:20N 31°45' E 121°00'128165.4
2016-Aug-21 19:33N 29°51' E 122°09'71212.0
2016-Aug-21 19:33N 29°49' E 122°01'1228112.0
2016-Aug-21 19:32N 31°43' E 121°09'50503.6
2016-Aug-21 19:26N 31°56' E 120°12'1573005.3
2016-Aug-21 19:23N 29°54' E 122°08'8118.9
2016-Aug-21 19:19N 29°54' E 121°59'1662594.7
2016-Aug-21 19:15N 32°02' E 119°56'173245.0
2016-Aug-21 18:33N 29°51' E 122°09'12349045.3
2016-Aug-21 18:33N 31°43' E 121°09'502332.7
2016-Aug-21 18:31N 31°56' E 120°12'157626.7
2016-Aug-21 18:16N 29°49' E 122°01'710.4
2016-Aug-21 17:33N 29°51' E 122°09'7180.7
2016-Aug-21 17:31N 29°49' E 122°01'15735405.9
2016-Aug-21 17:30N 31°56' E 120°12'5012831.0
2016-Aug-21 17:30N 31°43' E 121°09'29613.1
2016-Aug-21 17:27N 31°23' E 121°34'97106.7
2016-Aug-21 16:33N 29°51' E 122°09'1222670.8
2016-Aug-21 16:30N 31°42' E 121°09'1223587.2
2016-Aug-21 16:28N 29°49' E 122°01'1571102.1
2016-Aug-21 16:20N 31°56' E 120°12'160205.9
2016-Aug-21 15:33N 29°51' E 122°09'12262954.8
2016-Aug-21 15:33N 31°42' E 121°09'119484.0
2016-Aug-21 15:18N 29°54' E 122°07'780.9
2016-Aug-21 15:13N 29°54' E 121°59'1531583.8
2016-Aug-21 15:07N 31°56' E 120°12'160283.6
2016-Aug-21 14:34N 29°51' E 122°09'12215740.8
2016-Aug-21 14:33N 31°42' E 121°09'503677.7
2016-Aug-21 14:32N 31°56' E 120°12'1572563.3
2016-Aug-21 14:29N 29°49' E 122°01'1554655.2
2016-Aug-21 14:27N 32°04' E 120°31'157177.1
2016-Aug-21 13:33N 29°51' E 122°09'12225921.4
2016-Aug-21 13:33N 31°42' E 121°09'50298.4
2016-Aug-21 13:23N 31°56' E 120°12'160192.6
2016-Aug-21 12:33N 29°51' E 122°09'122440625.2
2016-Aug-21 12:33N 31°42' E 121°09'1226531.8
2016-Aug-21 12:32N 29°49' E 122°01'1571609.4
2016-Aug-21 12:26N 31°56' E 120°12'0 0.0
2016-Aug-21 11:33N 31°56' E 120°12'182043.8
2016-Aug-21 11:33N 32°04' E 120°31'15693330.7
2016-Aug-21 11:33N 29°53' E 122°09'9343.2
2016-Aug-21 11:31N 29°49' E 122°01'1221683.2
2016-Aug-21 11:27N 31°42' E 121°09'117887.9
2016-Aug-21 11:19N 29°54' E 121°59'1012.7
2016-Aug-21 10:34N 29°59' E 122°08'1531791.2
2016-Aug-21 10:28N 31°56' E 120°12'50553.9
2016-Aug-21 10:23N 31°42' E 121°09'115138.1
2016-Aug-21 09:33N 29°59' E 122°08'1151288.6
2016-Aug-21 09:28N 31°43' E 121°09'501649.9
2016-Aug-21 09:26N 31°56' E 120°12'1591269.3
2016-Aug-21 09:18N 29°55' E 122°12'5 7.2
2016-Aug-21 08:33N 29°59' E 122°08'1154402.8
2016-Aug-21 08:32N 31°43' E 121°09'50246.6
2016-Aug-21 08:20N 31°56' E 120°12'6442781.7
2016-Aug-21 08:06N 22°59' E 113°31'6241157.5
2016-Aug-21 07:34N 29°58' E 122°07'11613907.1
2016-Aug-21 07:33N 31°43' E 121°09'50210.7
2016-Aug-21 07:19N 31°56' E 120°12'158209.7
2016-Aug-21 06:34N 29°55' E 122°12'62354715.1
2016-Aug-21 06:33N 23°01' E 113°32'661396612.3
2016-Aug-21 06:33N 31°43' E 121°09'50278.7
2016-Aug-21 06:22N 31°56' E 120°12'420517.2
2016-Aug-21 05:33N 38°49' E 121°46'538120950.9
2016-Aug-21 05:33N 29°52' E 122°17'14833.8
2016-Aug-21 05:32N 29°49' E 122°01'61210543.3
2016-Aug-21 05:29N 23°01' E 113°32'66125316.2
2016-Aug-21 05:27N 31°43' E 121°09'421470.2
2016-Aug-21 04:33N 38°42' E 121°44'421757509.2
2016-Aug-21 04:33N 31°42' E 121°09'50464.4
2016-Aug-21 04:27N 31°56' E 120°12'5055.3
2016-Aug-21 03:33N 31°42' E 121°09'4133696.4
2016-Aug-21 03:26N 38°34' E 121°43'10244535.4
2016-Aug-21 03:12N 23°01' E 113°32'661966.2
2016-Aug-21 02:31N 31°42' E 121°09'66117497.6
2016-Aug-21 02:29N 23°01' E 113°32'6122703.8
2016-Aug-21 02:15N 29°49' E 122°01'612872.4
2016-Aug-21 01:33N 23°01' E 113°32'62589972.4
2016-Aug-21 01:33N 29°51' E 122°18'12618920.1
2016-Aug-21 01:32N 31°42' E 121°09'661669.6
2016-Aug-21 00:33N 23°01' E 113°32'66136610.4
2016-Aug-21 00:32N 31°42' E 121°09'1213680.0
2016-Aug-21 00:30N 29°57' E 122°16'1575.0
2016-Aug-21 00:18N 29°49' E 122°01'1519.8
2016-Aug-20 23:34N 29°58' E 122°15'1198757.3
2016-Aug-20 23:33N 31°42' E 121°09'6618205.8
2016-Aug-20 23:28N 23°01' E 113°32'6122319.5
2016-Aug-20 23:12N 29°49' E 122°01'613343804.7
2016-Aug-20 23:04N 33°36' W 117°55'611612184.5
2016-Aug-20 22:34N 29°58' E 122°15'1196811.5
2016-Aug-20 22:32N 31°43' E 121°09'61031156376.5
2016-Aug-20 22:32N 33°39' W 118°01'68146968.5
2016-Aug-20 21:33N 23°01' E 113°32'62759385.8
2016-Aug-20 21:33N 29°57' E 122°15'47853.2
2016-Aug-20 21:33N 29°55' E 122°11'12019694.1
2016-Aug-20 21:32N 31°43' E 121°09'1229948.5
2016-Aug-20 21:32N 29°49' E 122°01'4812267.6
2016-Aug-20 21:19N 37°49' E 121°31'6 8.1
2016-Aug-20 20:33N 37°43' E 121°29'472154536.6
2016-Aug-20 20:33N 29°53' E 122°17'1444.1
2016-Aug-20 20:14N 29°49' E 122°01'6125042.5
2016-Aug-20 20:07N 23°01' E 113°32'9661742.4
2016-Aug-20 19:33N 37°35' E 121°27'46617125.8
2016-Aug-20 19:32N 29°51' E 122°18'151861.9
2016-Aug-20 19:31N 29°49' E 122°01'612137722.8
2016-Aug-20 19:31N 23°01' E 113°32'9641002.4
2016-Aug-20 18:33N 37°33' E 121°28'46452193.3
2016-Aug-20 18:33N 29°51' E 122°18'62512219.8
2016-Aug-20 18:30N 23°01' E 113°32'61217488.6
2016-Aug-20 18:28N 29°49' E 122°01'613316116.4
2016-Aug-20 18:05N 33°37' W 117°54'589111287.2
2016-Aug-20 17:34N 37°33' E 121°28'46518381.0
2016-Aug-20 17:32N 29°49' E 122°01'612550891.2
2016-Aug-20 17:32N 23°01' E 113°32'6141862.1
2016-Aug-20 17:12N 29°48' E 122°05'466721.4
2016-Aug-20 16:33N 37°33' E 121°28'96454238.0
2016-Aug-20 16:32N 23°01' E 113°32'6614280.0
2016-Aug-20 16:23N 31°43' E 121°09'351424.0
2016-Aug-20 15:33N 37°33' E 121°28'3514860.3
2016-Aug-20 15:29N 31°42' E 121°09'6611572.8
2016-Aug-20 15:04N 23°01' E 113°32'9641901.0
2016-Aug-20 14:33N 37°33' E 121°28'35119745.0
2016-Aug-20 14:32N 31°42' E 121°09'351358.3
2016-Aug-20 13:34N 37°33' E 121°28'964578551.4
2016-Aug-20 13:33N 23°01' E 113°32'66114689.7
2016-Aug-20 13:31N 31°42' E 121°09'117605.2
2016-Aug-20 13:19N 29°54' E 121°59'478626.6
2016-Aug-20 12:33N 37°51' E 121°17'977234369.6
2016-Aug-20 12:33N 23°01' E 113°32'6617300.7
2016-Aug-20 12:28N 31°42' E 121°09'117341.2
2016-Aug-20 12:07N 29°54' E 121°59'471841.1
2016-Aug-20 11:34N 37°44' E 121°21'1214988.3
2016-Aug-20 11:33N 37°33' E 121°28'96455993.0
2016-Aug-20 11:32N 23°01' E 113°32'61246890.7
2016-Aug-20 11:32N 29°49' E 122°01'1222221.6
2016-Aug-20 11:28N 31°42' E 121°09'117755.4
2016-Aug-20 11:19N 29°54' E 121°59'911899.7
2016-Aug-20 11:16N 31°21' E 121°30'372520.3
2016-Aug-20 10:33N 37°33' E 121°28'6173.3
2016-Aug-20 10:31N 37°38' E 121°25'96711886.7
2016-Aug-20 10:27N 23°01' E 113°31'6126638.1
2016-Aug-20 10:21N 29°49' E 122°01'5157.7
2016-Aug-20 10:19N 29°54' E 121°59'912.4
2016-Aug-20 09:34N 29°49' E 122°08'465209369.6
2016-Aug-20 09:33N 37°33' E 121°28'46012264.8
2016-Aug-20 09:31N 29°54' E 121°59'46510334.3
2016-Aug-20 09:28N 37°38' E 121°25'4707583.7
2016-Aug-20 09:25N 29°49' E 122°01'465543.1
2016-Aug-20 08:33N 37°33' E 121°28'46332075.1
2016-Aug-20 08:33N 29°52' E 122°15'46825171.1
2016-Aug-20 08:31N 37°38' E 121°25'4703389.1
2016-Aug-20 08:23N 29°49' E 122°01'465562.9
2016-Aug-20 07:34N 37°33' E 121°28'37215393.7
2016-Aug-20 07:32N 31°21' E 121°31'37732314.4
2016-Aug-20 07:31N 37°38' E 121°25'47014093.2
2016-Aug-20 07:29N 29°49' E 122°01'73290.7
2016-Aug-20 07:29N 29°55' E 122°06'1141.5
2016-Aug-20 07:13N 29°51' E 122°18'464699.4
2016-Aug-20 06:33N 37°33' E 121°28'37234294.2
2016-Aug-20 06:33N 31°22' E 121°28'285.8
2016-Aug-20 06:31N 31°21' E 121°31'999869.8
2016-Aug-20 06:31N 29°51' E 122°18'46913296.4
2016-Aug-20 06:28N 37°38' E 121°25'96730819.6
2016-Aug-20 06:27N 23°02' E 113°31'61225335.8
2016-Aug-20 06:25N 29°49' E 122°01'1222826.1
2016-Aug-20 06:22N 31°43' E 121°09'351428.9
2016-Aug-20 05:33N 37°33' E 121°28'96468043.0
2016-Aug-20 05:33N 23°01' E 113°31'96750465.9
2016-Aug-20 05:31N 37°38' E 121°25'37712567.3
2016-Aug-20 05:30N 31°21' E 121°31'994280.9
2016-Aug-20 05:28N 29°51' E 122°18'15259.6
2016-Aug-20 05:25N 29°49' E 122°01'973187.5
2016-Aug-20 05:23N 31°22' E 121°28'371451.1
2016-Aug-20 04:33N 37°33' E 121°28'9643470136.0
2016-Aug-20 04:33N 23°01' E 113°31'65726876.5
2016-Aug-20 04:32N 31°21' E 121°31'28101919.1
2016-Aug-20 04:32N 31°43' E 121°09'12225749.1
2016-Aug-20 04:32N 29°49' E 122°01'151062.3
2016-Aug-20 04:31N 29°51' E 122°18'10010014.6
2016-Aug-20 04:30N 31°22' E 121°28'37612101.4
2016-Aug-20 04:28N 37°38' E 121°25'376411.6
2016-Aug-20 03:34N 31°22' E 121°28'3711337343.2
2016-Aug-20 03:33N 37°33' E 121°28'96482621.4
2016-Aug-20 03:33N 23°01' E 113°31'96740967.3
2016-Aug-20 03:31N 37°38' E 121°25'35612087.5
2016-Aug-20 03:30N 31°43' E 121°09'351375.3
2016-Aug-20 02:33N 37°33' E 121°28'964150873.8
2016-Aug-20 02:33N 23°01' E 113°31'6612378895.8
2016-Aug-20 02:33N 31°43' E 121°09'35612685.9
2016-Aug-20 02:31N 37°38' E 121°25'37611994.3
2016-Aug-20 02:30N 31°22' E 121°28'656701.6
2016-Aug-20 01:33N 23°01' E 113°31'964867524.4
2016-Aug-20 01:33N 37°33' E 121°28'6166.7
2016-Aug-20 01:31N 37°38' E 121°25'376169248.8
2016-Aug-20 01:31N 31°22' E 121°30'132.4
2016-Aug-20 01:29N 31°22' E 121°28'610639750.3
2016-Aug-20 01:19N 33°37' W 117°55'58917686.6
2016-Aug-20 00:33N 37°33' E 121°28'619851.2
2016-Aug-20 00:33N 37°38' E 121°25'96748365.8
2016-Aug-20 00:32N 23°02' E 113°31'656118087.1
2016-Aug-20 00:32N 31°22' E 121°28'26291.3
2016-Aug-20 00:26N 31°43' E 121°09'271599.7
2016-Aug-20 00:25N 31°23' E 121°30'6104122082.3
2016-Aug-20 00:22N 33°37' W 117°55'58907207.9
2016-Aug-19 23:33N 37°38' E 121°25'63966.3
2016-Aug-19 23:33N 37°33' E 121°28'35123401.7
2016-Aug-19 23:32N 31°43' E 121°09'6615264.5
2016-Aug-19 23:25N 23°02' E 113°31'65613268.3
2016-Aug-19 23:22N 31°22' E 121°28'375464.4
2016-Aug-19 22:34N 37°37' E 121°26'46787.5
2016-Aug-19 22:33N 37°33' E 121°28'35116201.8
2016-Aug-19 22:32N 31°43' E 121°09'12610811.8
2016-Aug-19 22:31N 29°51' E 122°18'6257189.1
2016-Aug-19 22:26N 23°02' E 113°31'65639364.7
2016-Aug-19 22:25N 31°22' E 121°28'6106132421.0
2016-Aug-19 22:23N 33°37' W 117°55'58947211.8
2016-Aug-19 21:33N 37°35' E 121°23'47421.7
2016-Aug-19 21:33N 37°33' E 121°28'463104274.2
2016-Aug-19 21:33N 29°51' E 122°14'12203.0
2016-Aug-19 21:30N 29°49' E 122°01'974632.2
2016-Aug-19 21:28N 31°22' E 121°28'6561838.0
2016-Aug-19 21:07N 23°02' E 113°31'9641724.0
2016-Aug-19 20:33N 37°33' E 121°28'465278794.2
2016-Aug-19 20:33N 29°49' E 122°01'467336027.8
2016-Aug-19 20:33N 37°35' E 121°23'362130279.0
2016-Aug-19 20:33N 31°33' E 121°19'14571.1
2016-Aug-19 20:32N 31°22' E 121°28'991149.5
2016-Aug-19 20:27N 29°48' E 122°08'1077.9
2016-Aug-19 20:19N 29°54' E 121°59'460604.5
2016-Aug-19 19:33N 37°33' E 121°28'47421.7
2016-Aug-19 19:33N 37°35' E 121°23'3738900.6
2016-Aug-19 19:31N 31°22' E 121°28'973695.9
2016-Aug-19 19:29N 29°49' E 122°01'6121836.7
2016-Aug-19 19:09N 23°02' E 113°31'9641609.6
2016-Aug-19 18:33N 37°33' E 121°28'41649.3
2016-Aug-19 18:33N 37°35' E 121°23'46717873.8
2016-Aug-19 18:32N 29°49' E 122°01'6127574.0
2016-Aug-19 18:27N 23°02' E 113°31'65628801.4
2016-Aug-19 18:26N 31°22' E 121°28'9215703.7
2016-Aug-19 18:25N 29°54' E 121°59'460534.1
2016-Aug-19 17:33N 37°33' E 121°28'41350.3
2016-Aug-19 17:33N 37°35' E 121°23'46212793.1
2016-Aug-19 17:31N 29°54' E 121°59'5166.6
2016-Aug-19 17:29N 29°49' E 122°01'971378.6
2016-Aug-19 17:25N 31°22' E 121°28'65623617.0
2016-Aug-19 17:24N 23°02' E 113°31'9641156.3
2016-Aug-19 16:33N 37°33' E 121°28'414871.7
2016-Aug-19 16:33N 37°35' E 121°23'373335993.6
2016-Aug-19 16:33N 31°22' E 121°28'6563616.7
2016-Aug-19 16:23N 23°02' E 113°31'9641180.7
2016-Aug-19 15:34N 37°33' E 121°28'41144.0
2016-Aug-19 15:33N 37°35' E 121°23'3537381.9
2016-Aug-19 15:30N 31°43' E 121°09'66144895.8
2016-Aug-19 15:30N 23°02' E 113°31'65640028.8
2016-Aug-19 15:29N 31°22' E 121°28'373406.5
2016-Aug-19 14:33N 37°35' E 121°23'42507.4
2016-Aug-19 14:33N 37°33' E 121°28'37114536.1
2016-Aug-19 14:32N 31°22' E 121°28'6566247.8
2016-Aug-19 14:26N 23°02' E 113°31'61222721.8
2016-Aug-19 14:24N 29°49' E 122°01'122915.6
2016-Aug-19 14:16N 31°43' E 121°09'353498.1
2016-Aug-19 13:33N 37°35' E 121°23'42147.9
2016-Aug-19 13:33N 37°33' E 121°28'37158145.3
2016-Aug-19 13:33N 31°22' E 121°28'65653676.9
2016-Aug-19 13:32N 23°02' E 113°31'6426883.3
2016-Aug-19 13:27N 31°56' E 120°12'50622.0
2016-Aug-19 13:22N 31°42' E 121°09'351436.1
2016-Aug-19 12:34N 37°33' E 121°28'43717.9
2016-Aug-19 12:33N 37°35' E 121°23'3739955.4
2016-Aug-19 12:31N 31°22' E 121°28'263073.1
2016-Aug-19 12:31N 31°42' E 121°09'1252841.2
2016-Aug-19 12:28N 29°47' E 122°03'1612848.0
2016-Aug-19 12:25N 31°56' E 120°12'153794.4
2016-Aug-19 12:13N 29°54' E 121°59'462698.5
2016-Aug-19 11:33N 37°35' E 121°23'4671679698.8
2016-Aug-19 11:33N 29°50' E 122°09'464418031.9
2016-Aug-19 11:33N 37°33' E 121°28'35131592.9
2016-Aug-19 11:33N 31°43' E 121°09'5013875.5
2016-Aug-19 11:32N 31°56' E 120°12'734471.3
2016-Aug-19 11:32N 31°22' E 121°28'6562894.4
2016-Aug-19 11:18N 23°02' E 113°31'9641301.9
2016-Aug-19 10:33N 37°34' E 121°25'465334822.9
2016-Aug-19 10:33N 29°51' E 122°17'10029860.1
2016-Aug-19 10:33N 31°22' E 121°28'65640028.7
2016-Aug-19 10:32N 23°02' E 113°31'66126735.7
2016-Aug-19 10:31N 31°43' E 121°09'50691.1
2016-Aug-19 10:26N 31°56' E 120°12'153567.3
2016-Aug-19 10:10N 29°54' E 121°59'469765.4
2016-Aug-19 09:33N 37°42' E 121°24'98485.1
2016-Aug-19 09:33N 37°33' E 121°28'34388101.6
2016-Aug-19 09:33N 31°56' E 120°12'5010011.7
2016-Aug-19 09:33N 31°43' E 121°09'126226984.3
2016-Aug-19 09:33N 29°51' E 122°18'151148.8
2016-Aug-19 09:32N 29°49' E 122°01'6127626.6
2016-Aug-19 09:27N 23°02' E 113°31'65617625.4
2016-Aug-19 09:25N 31°22' E 121°28'92945.0
2016-Aug-19 09:19N 29°54' E 121°59'477627.1
2016-Aug-19 08:33N 37°50' E 121°18'1922450.7
2016-Aug-19 08:33N 37°33' E 121°28'46430366.8
2016-Aug-19 08:33N 29°51' E 122°18'135379.5
2016-Aug-19 08:32N 29°48' E 122°03'9822023.4
2016-Aug-19 08:32N 31°22' E 121°28'7310551.8
2016-Aug-19 08:32N 31°56' E 120°12'64218210.2
2016-Aug-19 08:30N 23°02' E 113°31'661158617.2
2016-Aug-19 08:29N 31°42' E 121°09'213.7
2016-Aug-19 08:20N 31°41' E 121°10'353454.9
2016-Aug-19 07:34N 37°33' E 121°28'274412.3
2016-Aug-19 07:33N 37°56' E 121°10'4861750957.1
2016-Aug-19 07:33N 29°53' E 122°17'12412081.1
2016-Aug-19 07:33N 31°43' E 121°09'2184.5
2016-Aug-19 07:32N 31°43' E 121°07'4814503.9
2016-Aug-19 07:32N 31°56' E 120°12'739096.4
2016-Aug-19 07:31N 31°22' E 121°28'6565904.4
2016-Aug-19 07:25N 23°02' E 113°31'9641128.6
2016-Aug-19 06:33N 37°33' E 121°28'457126655.6
2016-Aug-19 06:33N 29°58' E 122°15'62731785.2
2016-Aug-19 06:32N 23°02' E 113°31'66127040.2
2016-Aug-19 06:31N 31°43' E 121°09'37561400.4
2016-Aug-19 06:30N 37°58' E 121°01'3979848.5
2016-Aug-19 06:28N 31°22' E 121°28'731691.0
2016-Aug-19 06:25N 31°56' E 120°12'159184.0
2016-Aug-19 05:33N 29°58' E 122°15'457822778.9
2016-Aug-19 05:33N 37°33' E 121°28'964693952.8
2016-Aug-19 05:33N 23°02' E 113°31'66133512.5
2016-Aug-19 05:32N 31°43' E 121°09'271018.1
2016-Aug-19 05:31N 31°22' E 121°28'9398.0
2016-Aug-19 04:33N 29°58' E 122°15'627451343.0
2016-Aug-19 04:33N 23°02' E 113°31'961314399.8
2016-Aug-19 04:33N 37°27' E 121°34'337101216.5
2016-Aug-19 04:33N 31°56' E 120°12'160144194.9
2016-Aug-19 04:33N 29°46' E 122°01'12540829.3
2016-Aug-19 04:33N 31°43' E 121°09'27547.1
2016-Aug-19 04:30N 31°22' E 121°28'2 5.4
2016-Aug-19 04:11N 31°23' E 121°30'93149.8
2016-Aug-19 03:34N 29°58' E 122°15'136829.4
2016-Aug-19 03:33N 29°50' E 122°03'457329344.3
2016-Aug-19 03:33N 37°27' E 121°35'36565674.6
2016-Aug-19 03:33N 31°22' E 121°28'262268.6
2016-Aug-19 03:32N 31°43' E 121°09'3012162.6
2016-Aug-19 03:32N 31°22' E 121°36'792249.4
2016-Aug-19 03:30N 31°56' E 120°12'15418525.4
2016-Aug-19 03:30N 29°57' E 122°07'152452.4
2016-Aug-19 03:09N 31°57' E 120°17'438732.6
2016-Aug-19 02:33N 38°57' E 117°45'584140092.1
2016-Aug-19 02:33N 29°58' E 122°15'450202574.2
2016-Aug-19 02:33N 37°27' E 121°35'36539803.5
2016-Aug-19 02:33N 31°22' E 121°28'65678716.4
2016-Aug-19 02:32N 23°02' E 113°31'6414203.7
2016-Aug-19 02:23N 31°56' E 120°11'519702.4
2016-Aug-19 02:23N 31°42' E 121°09'1152409.3
2016-Aug-19 02:20N 29°59' E 122°09'154947.4
2016-Aug-19 02:10N 31°56' E 120°12'6421056.0
2016-Aug-19 01:33N 23°02' E 113°31'9611152743.6
2016-Aug-19 01:33N 37°27' E 121°35'450101284.9
2016-Aug-19 01:33N 29°58' E 122°15'932266.4
2016-Aug-19 01:31N 31°22' E 121°28'26670.3
2016-Aug-19 01:28N 31°43' E 121°09'50693.8
2016-Aug-19 01:24N 31°56' E 120°12'4651644.3
2016-Aug-19 01:07N 24°26' E 118°02'8021431.9
2016-Aug-19 00:33N 37°27' E 121°35'4501620558.9
2016-Aug-19 00:33N 29°58' E 122°15'397238310.0
2016-Aug-19 00:33N 24°29' E 118°04'39636530.8
2016-Aug-19 00:33N 29°59' E 122°09'115413173.1
2016-Aug-19 00:33N 31°42' E 121°08'26420.4
2016-Aug-19 00:29N 31°22' E 121°28'73638.4
2016-Aug-19 00:22N 31°56' E 120°12'6424910.2
2016-Aug-19 00:14N 23°02' E 113°31'0 0.0
2016-Aug-18 23:33N 23°02' E 113°31'661108175.7
2016-Aug-18 23:33N 31°42' E 121°10'5115222.8
2016-Aug-18 23:33N 31°56' E 120°12'3371214415.0
2016-Aug-18 23:33N 37°27' E 121°34'36516044.6
2016-Aug-18 23:32N 31°21' E 121°27'932252.0
2016-Aug-18 23:29N 29°58' E 122°15'611623200.8
2016-Aug-18 23:13N 33°37' W 117°55'61169247.3
2016-Aug-18 22:34N 29°58' E 122°15'93111807.2
2016-Aug-18 22:33N 31°21' E 121°27'370221701.9
2016-Aug-18 22:33N 37°31' E 121°32'58933535582.9
2016-Aug-18 22:33N 33°34' W 117°52'61131833964.5
2016-Aug-18 22:33N 31°42' E 121°10'51363.9
2016-Aug-18 22:25N 31°56' E 120°12'642751.4
2016-Aug-18 21:33N 23°02' E 113°31'9671739959.0
2016-Aug-18 21:33N 37°36' E 121°28'50864577714.6
2016-Aug-18 21:33N 49°18' W 122°53'54261220747.7
2016-Aug-18 21:33N 31°56' E 120°12'1586269.8
2016-Aug-18 21:32N 29°58' E 122°15'935410.0
2016-Aug-18 21:30N 31°21' E 121°27'612099238.9
2016-Aug-18 21:27N 33°27' W 117°46'58976644.2
2016-Aug-18 20:34N 37°44' E 121°30'46840080.5
2016-Aug-18 20:33N 29°58' E 122°15'5430630543.8
2016-Aug-18 20:32N 49°18' W 122°58'5445276067.3
2016-Aug-18 20:31N 29°54' E 121°59'921180.8
2016-Aug-18 20:26N 31°21' E 121°27'655471863.2
2016-Aug-18 20:26N 23°02' E 113°31'0 0.0
2016-Aug-18 19:33N 23°02' E 113°31'683412301794.4
2016-Aug-18 19:33N 33°28' W 117°44'980110288.5
2016-Aug-18 19:33N 49°20' W 122°56'5430296200.3
2016-Aug-18 19:32N 29°58' E 122°15'475569907.0
2016-Aug-18 19:32N 37°51' E 121°32'39093550.9
2016-Aug-18 19:31N 31°21' E 121°27'92869.2
2016-Aug-18 19:25N 29°54' E 121°59'54456314.6
2016-Aug-18 18:33N 49°18' W 122°58'5430977342.8
2016-Aug-18 18:33N 29°58' E 122°15'931560.1
2016-Aug-18 18:29N 31°21' E 121°27'610736461.4
2016-Aug-18 18:19N 33°37' W 117°54'682124679.7
2016-Aug-18 18:03N 23°02' E 113°31'6271277.8
2016-Aug-18 17:33N 29°58' E 122°15'543031125.8
2016-Aug-18 17:23N 49°18' W 122°58'5395190409.8
2016-Aug-18 17:21N 31°21' E 121°27'65522684.4
2016-Aug-18 17:20N 23°02' E 113°31'6142978.8
2016-Aug-18 17:07N 29°54' E 121°59'1425.3
2016-Aug-18 16:33N 29°58' E 122°15'93335469.2
2016-Aug-18 16:33N 31°22' E 121°28'65669448.1
2016-Aug-18 16:33N 23°02' E 113°31'6144773.7
2016-Aug-18 16:25N 29°54' E 121°59'1416.5
2016-Aug-18 15:33N 29°58' E 122°15'62719286.8
2016-Aug-18 15:31N 23°02' E 113°31'65921982.1
2016-Aug-18 15:30N 31°24' E 121°31'659676.0
2016-Aug-18 14:31N 23°02' E 113°31'62713929.4
2016-Aug-18 14:28N 29°58' E 122°15'627684.2
2016-Aug-18 13:33N 23°02' E 113°31'102116410.6
2016-Aug-18 13:30N 38°30' E 121°45'51348609.4
2016-Aug-18 13:29N 29°58' E 122°15'95327.0
2016-Aug-18 13:12N 31°24' E 121°31'6601033.6
2016-Aug-18 12:33N 23°02' E 113°31'66095003.9
2016-Aug-18 12:33N 31°26' E 121°29'2337.7
2016-Aug-18 12:33N 31°26' E 121°30'961738.2
2016-Aug-18 12:29N 29°58' E 122°15'51944510.7
2016-Aug-18 12:29N 38°36' E 121°48'436472.2
2016-Aug-18 11:33N 31°21' E 121°32'9165491.5
2016-Aug-18 11:33N 29°58' E 122°15'525210010.0
2016-Aug-18 11:33N 38°42' E 121°50'43336232.4
2016-Aug-18 11:32N 31°30' E 121°23'66824.6
2016-Aug-18 11:28N 31°56' E 120°12'6167.0
2016-Aug-18 10:33N 31°34' E 121°19'436224143.1
2016-Aug-18 10:33N 38°49' E 121°53'53191076.3
2016-Aug-18 10:33N 29°58' E 122°15'15810372.8
2016-Aug-18 10:32N 31°56' E 120°12'146318.4
2016-Aug-18 10:04N 29°57' E 121°50'2241.3
2016-Aug-18 09:33N 29°58' E 122°15'61543.1
2016-Aug-18 09:33N 29°55' E 122°09'15722654.4
2016-Aug-18 09:32N 31°56' E 120°12'51890.2
2016-Aug-18 09:29N 31°42' E 121°10'5174861.0
2016-Aug-18 09:23N 40°17' E 122°04'620753.4
2016-Aug-18 08:33N 29°58' E 122°15'1192702.1
2016-Aug-18 08:31N 31°42' E 121°10'611071879.2
2016-Aug-18 08:26N 33°37' W 117°55'6150481273.2
2016-Aug-18 08:25N 31°56' E 120°12'5159.0
2016-Aug-18 07:33N 31°42' E 121°10'661216320.4
2016-Aug-18 07:33N 23°02' E 113°31'62737608.8
2016-Aug-18 07:32N 29°58' E 122°15'15816779.0
2016-Aug-18 07:32N 31°56' E 120°12'5082542.8
2016-Aug-18 07:20N 40°16' E 122°05'6225817.3
2016-Aug-18 07:13N 29°54' E 121°58'116175.2
2016-Aug-18 06:33N 31°42' E 121°09'11925135.9
2016-Aug-18 06:33N 29°58' E 122°15'627125372.4
2016-Aug-18 06:33N 23°02' E 113°31'61622631.5
2016-Aug-18 06:31N 29°53' E 122°03'155944.4
2016-Aug-18 06:21N 31°56' E 120°12'0 0.0
2016-Aug-18 05:33N 31°56' E 120°12'513573.4
2016-Aug-18 05:32N 31°42' E 121°10'1189647.9
2016-Aug-18 05:31N 29°53' E 122°03'11384.9
2016-Aug-18 05:29N 29°58' E 122°15'62712132.6
2016-Aug-18 05:26N 23°02' E 113°31'642727.7
2016-Aug-18 04:33N 31°56' E 120°12'6422312646.2
2016-Aug-18 04:33N 23°02' E 113°31'661158652.7
2016-Aug-18 04:33N 31°40' E 121°13'1153935.4
2016-Aug-18 04:31N 29°58' E 122°15'114534.7
2016-Aug-18 04:31N 29°53' E 122°03'1111.6
2016-Aug-18 03:33N 29°58' E 122°15'10939266.9
2016-Aug-18 03:33N 31°35' E 121°18'1091505.0
2016-Aug-18 03:28N 29°53' E 122°03'6163503.6
2016-Aug-18 03:18N 23°02' E 113°31'640127985.6
2016-Aug-18 03:17N 31°58' E 120°05'7263.9
2016-Aug-18 03:16N 31°56' E 120°12'4622183.3
2016-Aug-18 03:03N 24°29' E 118°04'458913.1
2016-Aug-18 02:33N 31°32' E 121°23'1043151.2
2016-Aug-18 02:31N 29°58' E 122°15'40053305.6
2016-Aug-18 02:31N 24°26' E 118°03'46435548.6
2016-Aug-18 02:30N 31°56' E 120°12'6427975.7
2016-Aug-18 02:25N 23°01' E 113°32'1 1.1
2016-Aug-18 01:33N 23°02' E 113°31'62790264.0
2016-Aug-18 01:33N 29°58' E 122°15'10027604.4
2016-Aug-18 01:33N 31°29' E 121°27'462103889.4
2016-Aug-18 01:32N 24°21' E 118°09'65281021811.8
2016-Aug-18 01:32N 33°37' W 117°55'614970499.3
2016-Aug-18 01:27N 31°57' E 120°13'0 3.5
2016-Aug-18 01:19N 31°56' E 120°12'1559302.2
2016-Aug-18 01:18N 29°53' E 122°03'94401.6
2016-Aug-18 01:04N 31°24' E 121°34'93177.5
2016-Aug-18 00:33N 29°58' E 122°15'9613795.9
2016-Aug-18 00:32N 31°26' E 121°31'716713.1
2016-Aug-18 00:32N 31°57' E 120°16'394.8
2016-Aug-18 00:29N 31°56' E 120°12'1551453.4
2016-Aug-18 00:23N 29°53' E 122°03'61610220.3
2016-Aug-18 00:19N 23°02' E 113°31'661862.0
2016-Aug-17 23:33N 31°24' E 121°35'9585571.2
2016-Aug-17 23:33N 29°56' E 122°17'937006.4
2016-Aug-17 23:33N 31°21' E 121°31'761834.8
2016-Aug-17 23:30N 31°56' E 120°12'6424339.0
2016-Aug-17 23:21N 23°02' E 113°31'654822.6
2016-Aug-17 22:33N 31°15' E 121°33'97835.3
2016-Aug-17 22:33N 31°24' E 121°35'44639192.2
2016-Aug-17 22:33N 38°50' E 121°56'1043113736.4
2016-Aug-17 22:32N 23°02' E 113°31'65325563.1
2016-Aug-17 22:31N 32°02' E 120°24'12153.0
2016-Aug-17 22:26N 31°56' E 120°12'1653787.4
2016-Aug-17 22:23N 29°51' E 122°18'100120.1
2016-Aug-17 21:33N 31°24' E 121°35'4381576562.5
2016-Aug-17 21:33N 38°42' E 121°53'531477905.8
2016-Aug-17 21:33N 29°51' E 122°18'625249972.5
2016-Aug-17 21:33N 23°02' E 113°31'64215733.0
2016-Aug-17 21:31N 31°56' E 120°12'155484.0
2016-Aug-17 21:12N 29°53' E 122°03'616963.9
2016-Aug-17 20:33N 23°02' E 113°31'661396816.5
2016-Aug-17 20:33N 31°24' E 121°35'7725221.5
2016-Aug-17 20:33N 31°56' E 120°12'4048609.8
2016-Aug-17 20:30N 38°33' E 121°49'5198818.2
2016-Aug-17 20:27N 29°53' E 122°03'616697.0
2016-Aug-17 19:34N 23°02' E 113°31'661476173.3
2016-Aug-17 19:33N 31°24' E 121°35'96344571.3
2016-Aug-17 19:33N 29°56' E 122°19'1623910.6
2016-Aug-17 19:31N 31°56' E 120°12'615044634.3
2016-Aug-17 19:23N 33°37' W 117°55'584966629.2
2016-Aug-17 19:17N 38°22' E 121°45'419571.1
2016-Aug-17 18:33N 31°24' E 121°35'771155.9
2016-Aug-17 18:29N 31°56' E 120°12'5106598.6
2016-Aug-17 18:25N 23°45' E 117°39'2323043.8
2016-Aug-17 18:20N 23°02' E 113°31'6299469.0
2016-Aug-17 18:16N 29°56' E 122°19'96134.1
2016-Aug-17 17:33N 31°24' E 121°34'9613795.9
2016-Aug-17 17:33N 29°56' E 122°19'45170654.3
2016-Aug-17 17:33N 23°42' E 117°35'44019313.2
2016-Aug-17 17:31N 29°54' E 121°59'614116333.0
2016-Aug-17 17:31N 23°02' E 113°31'64215840.7
2016-Aug-17 17:28N 31°56' E 120°12'7782.4
2016-Aug-17 16:32N 31°24' E 121°34'9611892.3
2016-Aug-17 16:32N 29°56' E 122°19'62994292.5
2016-Aug-17 16:32N 23°02' E 113°31'64212848.1
2016-Aug-17 16:29N 31°56' E 120°12'421043.1
2016-Aug-17 16:26N 31°47' E 121°00'130147.9
2016-Aug-17 15:33N 29°56' E 122°19'6281131106.2
2016-Aug-17 15:33N 23°02' E 113°31'64214101.5
2016-Aug-17 15:31N 31°56' E 120°12'361649260.2
2016-Aug-17 15:31N 37°51' E 121°33'4771644.8
2016-Aug-17 15:13N 29°54' E 121°59'1217.6
2016-Aug-17 14:33N 29°58' E 122°12'1109014.3
2016-Aug-17 14:33N 31°37' E 121°16'366329113.0
2016-Aug-17 14:33N 37°43' E 121°30'973129772.1
2016-Aug-17 14:32N 23°02' E 113°31'64220110.0
2016-Aug-17 14:30N 31°56' E 120°12'642679.2
2016-Aug-17 13:33N 23°02' E 113°31'624149663.9
2016-Aug-17 13:33N 29°59' E 122°08'10151735.4
2016-Aug-17 13:33N 31°32' E 121°22'6419250.8
2016-Aug-17 13:33N 31°56' E 120°12'344348.2
2016-Aug-17 12:34N 37°36' E 121°25'9651157999.6
2016-Aug-17 12:34N 23°02' E 113°31'624224500.5
2016-Aug-17 12:33N 29°59' E 122°08'9616413.9
2016-Aug-17 12:33N 31°29' E 121°27'9899.0
2016-Aug-17 11:33N 29°57' E 122°08'4601657228.0
2016-Aug-17 11:33N 37°36' E 121°25'965868509.6
2016-Aug-17 11:33N 23°02' E 113°31'642154183.7
2016-Aug-17 11:33N 31°56' E 120°12'732897.6
2016-Aug-17 11:32N 31°26' E 121°30'95901.1
2016-Aug-17 11:25N 29°54' E 121°59'613266890.3
2016-Aug-17 11:20N 33°37' W 117°55'61047907.7
2016-Aug-17 10:33N 31°21' E 121°31'3741347689.2
2016-Aug-17 10:33N 37°36' E 121°25'34426387.2
2016-Aug-17 10:33N 31°56' E 120°12'16318305.7
2016-Aug-17 10:32N 29°53' E 122°16'625281080.8
2016-Aug-17 10:32N 23°02' E 113°31'61450235.4
2016-Aug-17 10:31N 29°54' E 121°59'85914.5
2016-Aug-17 10:26N 31°18' E 121°43'378434.1
2016-Aug-17 09:33N 37°36' E 121°25'373149072.4
2016-Aug-17 09:33N 31°23' E 121°34'7792759.6
2016-Aug-17 09:33N 31°56' E 120°12'642136044.4
2016-Aug-17 09:33N 23°02' E 113°31'6821341043.3
2016-Aug-17 09:32N 33°37' W 117°55'6132712058.4
2016-Aug-17 09:31N 29°54' E 121°59'84451.6
2016-Aug-17 09:20N 31°15' E 121°32'931363.1
2016-Aug-17 09:16N 29°51' E 122°18'466658.0
2016-Aug-17 08:33N 37°36' E 121°25'34518238.5
2016-Aug-17 08:32N 31°56' E 120°12'64218355.1
2016-Aug-17 08:30N 23°02' E 113°31'62549998.8
2016-Aug-17 08:29N 29°51' E 122°18'49978165.7
2016-Aug-17 08:29N 38°10' E 121°44'4963031.4
2016-Aug-17 08:19N 29°54' E 121°59'614806.1
2016-Aug-17 07:34N 23°02' E 113°31'965193002.1
2016-Aug-17 07:33N 37°36' E 121°25'46629988.5
2016-Aug-17 07:32N 29°51' E 122°18'17990.2
2016-Aug-17 07:31N 29°54' E 121°59'4917457.0
2016-Aug-17 07:27N 38°05' E 121°53'3786972.1
2016-Aug-17 07:24N 31°56' E 120°12'344409.2
2016-Aug-17 06:34N 37°36' E 121°25'466129180.0
2016-Aug-17 06:33N 29°51' E 122°18'625562450.1
2016-Aug-17 06:33N 23°02' E 113°31'6142622.0
2016-Aug-17 06:19N 29°54' E 121°59'48516155.4
2016-Aug-17 06:17N 37°59' E 122°02'3735441.3
2016-Aug-17 06:13N 31°56' E 120°12'642969.7
2016-Aug-17 05:34N 23°02' E 113°31'62516666.3
2016-Aug-17 05:31N 29°51' E 122°18'1710067.3
2016-Aug-17 05:31N 29°54' E 121°59'15334359.8
2016-Aug-17 05:31N 31°56' E 120°12'371445383.2
2016-Aug-17 05:31N 37°55' E 122°08'4041.3
2016-Aug-17 04:34N 37°36' E 121°25'464104375.5
2016-Aug-17 04:33N 29°54' E 122°17'6264577.2
2016-Aug-17 04:25N 23°02' E 113°31'6423467.4
2016-Aug-17 04:14N 31°56' E 120°12'344509.3
2016-Aug-17 03:33N 37°36' E 121°25'46028547.0
2016-Aug-17 03:32N 29°58' E 122°15'6279248.9
2016-Aug-17 03:28N 23°02' E 113°31'6427708.8
2016-Aug-17 03:23N 31°56' E 120°12'615023728.4
2016-Aug-17 03:08N 33°37' W 117°55'589210266.0
2016-Aug-17 02:33N 37°35' E 121°26'34532638.6
2016-Aug-17 02:33N 31°56' E 120°12'641177456.3
2016-Aug-17 02:33N 23°03' E 113°31'62686694.7
2016-Aug-17 02:32N 29°58' E 122°15'4648517.0
2016-Aug-17 02:29N 37°41' E 122°33'583438891.7
2016-Aug-17 02:20N 33°37' W 117°55'594556621.1
2016-Aug-17 02:14N 38°09' E 119°55'5063312.9
2016-Aug-17 02:04N 29°54' E 122°01'6151195.0
2016-Aug-17 01:33N 23°03' E 113°31'968580742.6
2016-Aug-17 01:33N 37°39' E 121°28'349313817.8
2016-Aug-17 01:33N 31°57' E 120°05'163195805.2
2016-Aug-17 01:33N 29°58' E 122°15'1576283.9
2016-Aug-17 01:32N 31°56' E 120°14'37223523.3
2016-Aug-17 01:31N 38°08' E 120°03'9661011.5
2016-Aug-17 00:34N 23°03' E 113°31'975501523.8
2016-Aug-17 00:33N 37°46' E 121°30'35420243.9
2016-Aug-17 00:32N 32°00' E 119°58'16987085.9
2016-Aug-17 00:32N 29°58' E 122°15'6116917395.0
2016-Aug-17 00:32N 33°37' W 117°55'613238725.9
2016-Aug-17 00:22N 29°54' E 121°59'5004224.1
2016-Aug-17 00:15N 38°06' E 120°15'5 7.1
2016-Aug-16 23:33N 38°05' E 120°21'576820.8
2016-Aug-16 23:33N 37°54' E 121°32'984295112.1
2016-Aug-16 23:33N 23°02' E 113°31'6578865.2
2016-Aug-16 23:28N 31°22' E 121°30'3651310.7
2016-Aug-16 23:12N 37°21' E 122°53'445697.1
2016-Aug-16 22:33N 29°58' E 122°15'485436131.2
2016-Aug-16 22:33N 38°01' E 121°33'991509476.9
2016-Aug-16 22:33N 23°02' E 113°31'98223102.6
2016-Aug-16 22:31N 37°15' E 122°53'12388720.4
2016-Aug-16 22:30N 38°04' E 120°30'494518.7
2016-Aug-16 21:33N 29°58' E 122°15'49224925.0
2016-Aug-16 21:32N 38°02' E 120°37'97328015.3
2016-Aug-16 21:30N 23°02' E 113°31'99850593.7
2016-Aug-16 21:29N 38°08' E 121°35'505526603.7
2016-Aug-16 21:17N 49°18' W 122°54'544831892.6
2016-Aug-16 21:07N 29°54' E 121°59'491870.6
2016-Aug-16 20:33N 38°01' E 120°44'433907.3
2016-Aug-16 20:33N 38°15' E 121°36'49847199.4
2016-Aug-16 20:32N 29°58' E 122°15'54333911999.6
2016-Aug-16 20:32N 49°18' W 122°54'5448417318.0
2016-Aug-16 20:31N 29°54' E 121°59'61414835.6
2016-Aug-16 20:29N 23°02' E 113°31'627678.2
2016-Aug-16 19:33N 29°58' E 122°15'488135004.1
2016-Aug-16 19:33N 38°00' E 120°51'975292610.8
2016-Aug-16 19:33N 23°02' E 113°31'958172460.2
2016-Aug-16 19:33N 36°47' E 122°51'5066588325.1
2016-Aug-16 19:32N 49°18' W 122°54'5041672150.2
2016-Aug-16 19:32N 38°22' E 121°38'3839.6
2016-Aug-16 18:33N 37°59' E 120°59'364327614.4
2016-Aug-16 18:33N 31°57' E 120°14'644257468.2
2016-Aug-16 18:33N 23°02' E 113°31'62749065.4
2016-Aug-16 18:32N 29°58' E 122°15'5433814999.9
2016-Aug-16 18:32N 49°18' W 122°54'503111559.1
2016-Aug-16 18:06N 38°31' E 121°41'515949.6
2016-Aug-16 17:33N 29°58' E 122°15'62770531.0
2016-Aug-16 17:33N 23°02' E 113°31'978125682.6
2016-Aug-16 17:32N 37°56' E 121°08'5084831919.9
2016-Aug-16 17:32N 49°18' W 122°54'502750548.6
2016-Aug-16 17:26N 38°36' E 121°42'7 7.6
2016-Aug-16 16:33N 38°43' E 121°43'526236631.0
2016-Aug-16 16:33N 29°58' E 122°15'47855534.3
2016-Aug-16 16:33N 37°53' E 121°15'5081435518.1
2016-Aug-16 16:32N 49°18' W 122°54'9676329.7
2016-Aug-16 16:23N 33°37' W 117°55'682153613.8
2016-Aug-16 16:15N 23°02' E 113°31'9741397.1
2016-Aug-16 15:33N 37°48' E 121°21'6621499.1
2016-Aug-16 15:33N 38°51' E 121°45'53450550.7
2016-Aug-16 15:33N 29°58' E 122°15'611619623.4
2016-Aug-16 15:14N 33°37' W 117°55'61179069.9
2016-Aug-16 14:33N 29°58' E 122°13'466837952.5
2016-Aug-16 14:33N 37°42' E 121°26'46913191.3
2016-Aug-16 14:31N 29°54' E 121°59'61410093.3
2016-Aug-16 14:28N 23°02' E 113°31'10487093.9
2016-Aug-16 14:19N 39°00' E 121°46'86114.7
2016-Aug-16 13:34N 37°35' E 121°26'45765809.8
2016-Aug-16 13:33N 29°59' E 122°08'62417678.1
2016-Aug-16 13:31N 23°02' E 113°31'9631003.3
2016-Aug-16 12:33N 37°34' E 121°23'456410491.5
2016-Aug-16 12:33N 29°59' E 122°08'6241647.2
2016-Aug-16 12:11N 23°02' E 113°31'6241005.2
2016-Aug-16 11:33N 29°59' E 122°08'624187063.6
2016-Aug-16 11:33N 23°02' E 113°31'96324593.1
2016-Aug-16 11:31N 37°34' E 121°23'462471.6
2016-Aug-16 10:32N 29°54' E 122°11'62242255.9
2016-Aug-16 10:31N 23°02' E 113°31'96317252.1
2016-Aug-16 10:28N 37°34' E 121°23'46110639.0
2016-Aug-16 10:25N 29°54' E 121°59'1213.7
2016-Aug-16 09:33N 29°52' E 122°12'12141.8
2016-Aug-16 09:28N 29°54' E 121°59'46148814.3
2016-Aug-16 09:28N 37°34' E 121°23'96312891.0
2016-Aug-16 09:23N 23°02' E 113°31'622748.2
2016-Aug-16 08:33N 29°52' E 122°12'46410497.5
2016-Aug-16 08:31N 37°34' E 121°23'96355046.6
2016-Aug-16 08:30N 23°01' E 113°32'0 0.0
2016-Aug-16 07:33N 23°01' E 113°32'62117208.5
2016-Aug-16 07:31N 29°52' E 122°12'46410245.0
2016-Aug-16 07:28N 37°34' E 121°23'589432492.9
2016-Aug-16 07:17N 33°37' W 117°55'68209389.5
2016-Aug-16 06:33N 23°01' E 113°32'0 0.0
2016-Aug-16 04:32N 23°01' E 113°32'96375389.5
2016-Aug-16 04:31N 37°34' E 121°23'963986.9
2016-Aug-16 03:32N 23°01' E 113°32'96340805.1
2016-Aug-16 03:31N 37°34' E 121°24'9631003.9
2016-Aug-16 02:33N 23°01' E 113°32'97024252.0
2016-Aug-16 02:31N 37°39' E 121°30'9701012.0
2016-Aug-16 01:33N 23°01' E 113°32'97010518.2
2016-Aug-16 01:28N 37°39' E 121°30'0 0.0
2016-Aug-16 00:31N 37°39' E 121°30'970232804.8
2016-Aug-16 00:31N 23°01' E 113°32'682038485.3
2016-Aug-16 00:20N 33°37' W 117°55'58867600.2
2016-Aug-15 23:34N 37°41' E 121°28'971249761.2
2016-Aug-15 23:33N 23°01' E 113°32'62838347.1
2016-Aug-15 23:32N 29°56' E 122°19'61131158332.3
2016-Aug-15 23:32N 33°37' W 117°55'613253970.1
2016-Aug-15 23:25N 29°54' E 121°59'  
Track history (hours):
 
Tides and Currents Weather Stations Pressure Air Temp Water Temp Dewpoint Dewpoint Depression Visibility Wind Speed Wind Dir Waves Ship Positions

Graceful Lady

Last reported at 2016-Aug-25 22:33 UTC. Time now 2016-Aug-25 23:45 UTC.
Position N 37°34' E 121°25'.

Length 6 m.

Type: Pollution control. MMSI: 316014038.

Date/timePositionNaut miles runAvg speedWind from/ knotsBaromVisibWave heightAir tempDewpointWater temp
2016-Aug-25 22:33N 37°34' E 121°25'46139549.4
2016-Aug-25 22:33N 29°54' E 122°17'10477.7
2016-Aug-25 22:31N 29°55' E 122°05'460110377.6
2016-Aug-25 22:31N 37°34' E 121°26'33629471.4
2016-Aug-25 22:31N 32°02' E 120°27'1554890.3
2016-Aug-25 22:29N 29°49' E 122°01'1532270.1
2016-Aug-25 22:25N 31°59' E 120°26'6517734.6
2016-Aug-25 22:20N 23°02' E 113°31'9631252.2
2016-Aug-25 21:33N 37°34' E 121°25'466139855.2
2016-Aug-25 21:33N 29°49' E 122°12'12719875.8
2016-Aug-25 21:33N 31°44' E 121°07'6612379067.4
2016-Aug-25 21:33N 23°02' E 113°31'96428915.6
2016-Aug-25 21:31N 37°34' E 121°26'46655868.6
2016-Aug-25 21:30N 29°49' E 122°01'9 9.8
2016-Aug-25 20:33N 29°49' E 122°12'466129094.3
2016-Aug-25 20:33N 37°34' E 121°25'963866848.0
2016-Aug-25 20:33N 23°02' E 113°31'61230606.5
2016-Aug-25 20:32N 29°49' E 122°01'46624647.9
2016-Aug-25 20:31N 37°34' E 121°26'339907.7
2016-Aug-25 20:08N 32°03' E 119°56'1672114.3
2016-Aug-25 20:04N 29°54' E 121°59'6141205.6
2016-Aug-25 19:33N 23°02' E 113°31'963577901.9
2016-Aug-25 19:33N 37°34' E 121°25'46688328.8
2016-Aug-25 19:33N 29°49' E 122°12'17610715.4
2016-Aug-25 19:32N 32°02' E 119°57'34020750.2
2016-Aug-25 19:31N 37°34' E 121°26'3604741.4
2016-Aug-25 19:26N 31°35' E 121°19'660746.3
2016-Aug-25 18:33N 23°02' E 113°31'6222238797.8
2016-Aug-25 18:33N 29°51' E 122°13'17213462.4
2016-Aug-25 18:32N 31°60' E 119°60'341153639.6
2016-Aug-25 18:32N 37°34' E 121°25'145.8
2016-Aug-25 18:31N 37°34' E 121°26'1 1.1
2016-Aug-25 17:32N 37°34' E 121°25'139.7
2016-Aug-25 17:31N 37°34' E 121°26'3436820.8
2016-Aug-25 17:28N 31°58' E 120°03'639164347.6
2016-Aug-25 17:28N 23°02' E 113°31'6258856.6
2016-Aug-25 17:23N 29°51' E 122°18'465558.4
2016-Aug-25 16:33N 37°34' E 121°25'465334632.6
2016-Aug-25 16:33N 29°51' E 122°18'16935749.7
2016-Aug-25 16:33N 31°57' E 120°07'3439362.3
2016-Aug-25 16:31N 37°34' E 121°26'96496386.9
2016-Aug-25 16:30N 23°02' E 113°31'6125845.4
2016-Aug-25 16:24N 29°49' E 122°01'3534369.8
2016-Aug-25 16:19N 24°30' E 119°12'353465.1
2016-Aug-25 15:34N 29°49' E 122°01'465128887.1
2016-Aug-25 15:33N 37°34' E 121°25'46583660.1
2016-Aug-25 15:33N 29°51' E 122°18'16625915.2
2016-Aug-25 15:33N 31°56' E 120°11'44811510.8
2016-Aug-25 15:30N 24°32' E 119°05'319574413.3
2016-Aug-25 15:30N 23°02' E 113°31'9646884.9
2016-Aug-25 15:22N 37°34' E 121°26'33912085.8
2016-Aug-25 15:20N 31°59' E 120°26'0 0.0
2016-Aug-25 14:33N 31°59' E 120°26'651167402.1
2016-Aug-25 14:33N 23°02' E 113°31'645580158.3
2016-Aug-25 14:33N 31°57' E 120°16'34221574.2
2016-Aug-25 14:32N 37°34' E 121°25'144.4
2016-Aug-25 14:31N 37°34' E 121°26'46615519.4
2016-Aug-25 14:29N 29°49' E 122°01'151054.4
2016-Aug-25 14:28N 29°51' E 122°18'465509.5
2016-Aug-25 13:33N 37°34' E 121°25'338152212.7
2016-Aug-25 13:33N 31°60' E 120°21'16318364.1
2016-Aug-25 13:33N 29°51' E 122°18'15995.9
2016-Aug-25 13:32N 29°49' E 122°01'612146915.2
2016-Aug-25 13:32N 23°02' E 113°31'96473829.1
2016-Aug-25 13:31N 37°34' E 121°26'3395868.6
2016-Aug-25 13:27N 31°59' E 120°26'651722.2
2016-Aug-25 12:33N 23°02' E 113°31'963165115.8
2016-Aug-25 12:33N 37°34' E 121°25'334240834.0
2016-Aug-25 12:33N 32°03' E 120°25'16127552.8
2016-Aug-25 12:32N 29°54' E 122°17'46216813.8
2016-Aug-25 12:31N 37°34' E 121°26'33923477.7
2016-Aug-25 12:30N 31°59' E 120°26'153763.0
2016-Aug-25 12:18N 29°49' E 122°01'465628.0
2016-Aug-25 11:33N 37°34' E 121°25'458549766.7
2016-Aug-25 11:33N 29°58' E 122°15'45810575.7
2016-Aug-25 11:31N 37°34' E 121°26'9645313.9
2016-Aug-25 11:20N 23°02' E 113°31'6514212.8
2016-Aug-25 11:11N 31°58' E 120°26'339545.6
2016-Aug-25 10:33N 37°34' E 121°25'458103079.9
2016-Aug-25 10:33N 29°58' E 122°15'627376072.4
2016-Aug-25 10:33N 23°02' E 113°31'96426288.1
2016-Aug-25 10:31N 37°34' E 121°26'458479.2
2016-Aug-25 09:33N 29°58' E 122°15'458126870.9
2016-Aug-25 09:33N 37°34' E 121°25'96347499.3
2016-Aug-25 09:32N 23°02' E 113°31'96448872.8
2016-Aug-25 09:31N 37°34' E 121°26'458479.3
2016-Aug-25 08:33N 29°58' E 122°15'45868723.5
2016-Aug-25 08:33N 37°34' E 121°25'9631155836.7
2016-Aug-25 08:33N 23°02' E 113°31'96415286.4
2016-Aug-25 08:29N 37°34' E 121°26'4661617.9
2016-Aug-25 08:12N 29°49' E 122°01'1522.9
2016-Aug-25 07:33N 29°58' E 122°15'458235617.4
2016-Aug-25 07:33N 37°34' E 121°25'96365424.0
2016-Aug-25 07:32N 23°02' E 113°31'96417979.3
2016-Aug-25 07:29N 37°34' E 121°26'1 1.2
2016-Aug-25 06:34N 37°34' E 121°25'963495344.6
2016-Aug-25 06:33N 23°02' E 113°31'62722791.0
2016-Aug-25 06:32N 29°58' E 122°15'45810713.3
2016-Aug-25 06:29N 37°34' E 121°26'3391424.4
2016-Aug-25 06:15N 31°59' E 120°26'339200.0
2016-Aug-25 04:33N 37°34' E 121°25'159.7
2016-Aug-25 04:32N 37°34' E 121°26'33917194.1
2016-Aug-25 04:31N 31°59' E 120°26'15334361.9
2016-Aug-25 04:31N 29°58' E 122°15'458477.0
2016-Aug-25 03:33N 37°34' E 121°25'45874981.4
2016-Aug-25 03:33N 29°58' E 122°15'4587782.8
2016-Aug-25 03:29N 37°34' E 121°26'9637439.0
2016-Aug-25 03:21N 23°03' E 113°31'6122569.4
2016-Aug-25 03:07N 29°54' E 121°58'461818.7
2016-Aug-25 02:33N 37°34' E 121°25'45829456.6
2016-Aug-25 02:32N 29°58' E 122°15'4588418.1
2016-Aug-25 02:29N 37°34' E 121°26'96328649.3
2016-Aug-25 02:27N 23°03' E 113°31'626695.0
2016-Aug-25 01:33N 29°58' E 122°15'458117830.9
2016-Aug-25 01:33N 37°34' E 121°25'190.0
2016-Aug-25 01:32N 37°34' E 121°26'3392517.4
2016-Aug-25 01:24N 31°59' E 120°26'6511919.4
2016-Aug-25 01:04N 23°02' E 113°31'0 0.0
2016-Aug-25 00:33N 23°02' E 113°31'62714942.9
2016-Aug-25 00:31N 29°58' E 122°15'45818133.3
2016-Aug-25 00:29N 37°34' E 121°26'5873140945.4
2016-Aug-25 00:27N 33°46' W 118°11'6118265354.4
2016-Aug-25 00:25N 31°59' E 120°26'651751.2
2016-Aug-24 23:33N 23°02' E 113°31'66146642.7
2016-Aug-24 23:33N 31°41' E 121°11'35363580.9
2016-Aug-24 23:32N 37°34' E 121°26'5873251679.3
2016-Aug-24 23:31N 33°45' W 118°12'609799321.3
2016-Aug-24 23:27N 29°58' E 122°15'1532380.2
2016-Aug-24 23:23N 31°59' E 120°26'339398.5
2016-Aug-24 22:32N 37°34' E 121°26'466119741.5
2016-Aug-24 22:32N 29°49' E 122°01'6117595132.2
2016-Aug-24 22:31N 33°45' W 118°09'6091498327.1
2016-Aug-24 22:31N 31°37' E 121°17'661148676.4
2016-Aug-24 22:30N 23°02' E 113°31'65514210.1
2016-Aug-24 22:28N 31°21' E 121°27'655726.5
2016-Aug-24 21:33N 23°02' E 113°31'65998918.1
2016-Aug-24 21:33N 31°32' E 121°21'36225583.0
2016-Aug-24 21:32N 37°34' E 121°26'466111758.7
2016-Aug-24 21:32N 29°49' E 122°01'971941.5
2016-Aug-24 21:29N 31°22' E 121°28'9330541.7
2016-Aug-24 21:29N 29°58' E 122°15'15313410.8
2016-Aug-24 21:28N 31°59' E 120°26'651714.9
2016-Aug-24 20:33N 23°02' E 113°31'62715891.8
2016-Aug-24 20:31N 29°56' E 122°17'964004.4
2016-Aug-24 20:30N 31°22' E 121°28'37353645.3
2016-Aug-24 20:29N 37°34' E 121°26'46610609.9
2016-Aug-24 20:27N 29°49' E 122°01'97108.1
2016-Aug-24 19:33N 31°22' E 121°29'65776248.7
2016-Aug-24 19:32N 23°02' E 113°31'964247861.3
2016-Aug-24 19:32N 37°34' E 121°26'3531277.1
2016-Aug-24 19:16N 31°42' E 121°10'17712.1
2016-Aug-24 19:14N 31°30' E 121°23'561610.3
2016-Aug-24 19:12N 31°59' E 120°26'6511010.1
2016-Aug-24 18:33N 23°02' E 113°31'964867490.4
2016-Aug-24 18:33N 37°34' E 121°26'354159149.8
2016-Aug-24 18:33N 31°41' E 121°11'15110.5
2016-Aug-24 18:25N 31°30' E 121°23'109460.7
2016-Aug-24 18:11N 29°51' E 122°18'1344560.9
2016-Aug-24 18:09N 31°47' E 120°59'132223.1
2016-Aug-24 17:33N 29°51' E 122°14'464835757.4
2016-Aug-24 17:33N 37°34' E 121°26'964115664.1
2016-Aug-24 17:33N 23°02' E 113°31'6596292.1
2016-Aug-24 17:27N 31°30' E 121°23'241435.2
2016-Aug-24 17:26N 31°46' E 121°03'12216933.2
2016-Aug-24 17:25N 29°54' E 121°59'1213.8
2016-Aug-24 16:33N 29°49' E 122°12'619185784.7
2016-Aug-24 16:33N 23°02' E 113°31'66014476.9
2016-Aug-24 16:30N 31°24' E 121°31'931051.9
2016-Aug-24 16:25N 29°54' E 121°59'114739.7
2016-Aug-24 16:16N 31°41' E 121°11'1 1.5
2016-Aug-24 15:34N 31°41' E 121°12'1810775.4
2016-Aug-24 15:33N 31°28' E 121°27'10647627.6
2016-Aug-24 15:33N 29°49' E 122°12'61934299.0
2016-Aug-24 15:32N 23°02' E 113°31'96421150.0
2016-Aug-24 15:29N 37°35' E 121°23'3656702.9
2016-Aug-24 15:26N 31°30' E 121°23'56391.7
2016-Aug-24 15:18N 31°59' E 120°26'42320.2
2016-Aug-24 15:10N 31°41' E 121°11'4 6.2
2016-Aug-24 14:33N 31°38' E 121°14'1017605.8
2016-Aug-24 14:33N 31°31' E 121°22'1117957.0
2016-Aug-24 14:33N 29°49' E 122°12'467240260.8
2016-Aug-24 14:32N 37°35' E 121°23'3547005.4
2016-Aug-24 14:29N 31°41' E 121°11'15481.5
2016-Aug-24 14:28N 31°30' E 121°23'65916473.7
2016-Aug-24 14:25N 23°02' E 113°31'6124295.7
2016-Aug-24 14:17N 29°49' E 122°01'1531801.2
2016-Aug-24 14:12N 31°59' E 120°26'613783052.7
2016-Aug-24 14:07N 33°37' W 117°55'610810880.9
2016-Aug-24 13:33N 31°38' E 121°14'11818536.3
2016-Aug-24 13:33N 29°51' E 122°14'62210564.7
2016-Aug-24 13:29N 23°02' E 113°31'65945619.2
2016-Aug-24 13:29N 31°30' E 121°23'561127.2
2016-Aug-24 13:26N 31°59' E 120°26'491052.7
2016-Aug-24 13:23N 31°36' E 121°17'793.7
2016-Aug-24 13:18N 31°41' E 121°11'1115.1
2016-Aug-24 12:33N 31°32' E 121°20'81095.9
2016-Aug-24 12:33N 31°38' E 121°14'357106960.0
2016-Aug-24 12:32N 37°35' E 121°23'46623948.0
2016-Aug-24 12:31N 29°51' E 122°18'62524719.0
2016-Aug-24 12:30N 23°02' E 113°31'660216090.4
2016-Aug-24 12:30N 31°41' E 121°11'262.5
2016-Aug-24 12:27N 31°39' E 121°13'3 3.0
2016-Aug-24 11:33N 31°38' E 121°15'35732938.9
2016-Aug-24 11:32N 37°35' E 121°23'96456862.7
2016-Aug-24 11:31N 23°02' E 113°31'66051674.2
2016-Aug-24 11:31N 31°41' E 121°11'278.9
2016-Aug-24 11:30N 31°40' E 121°12'1223062.3
2016-Aug-24 11:27N 29°51' E 122°18'112126.0
2016-Aug-24 10:34N 31°33' E 121°21'1073995.3
2016-Aug-24 10:32N 29°57' E 122°16'46011111.3
2016-Aug-24 10:29N 37°35' E 121°23'8044881.8
2016-Aug-24 10:20N 24°29' E 118°04'456593.5
2016-Aug-24 09:34N 31°27' E 121°29'46120467.2
2016-Aug-24 09:32N 24°25' E 118°00'26052089.1
2016-Aug-24 09:32N 23°02' E 113°31'62720145.8
2016-Aug-24 09:30N 29°58' E 122°15'11838656.5
2016-Aug-24 09:30N 31°42' E 121°10'35363566.0
2016-Aug-24 09:29N 37°35' E 121°23'35412259.5
2016-Aug-24 09:28N 31°41' E 121°11'42487.0
2016-Aug-24 09:23N 31°59' E 120°26'473568.9
2016-Aug-24 08:33N 24°25' E 117°52'40641797.0
2016-Aug-24 08:32N 29°58' E 122°15'62716838.3
2016-Aug-24 08:30N 23°02' E 113°31'96317170.9
2016-Aug-24 08:27N 37°35' E 121°23'35428333.1
2016-Aug-24 08:26N 31°41' E 121°11'642.0
2016-Aug-24 08:17N 31°45' E 121°05'341322.8
2016-Aug-24 08:15N 31°24' E 121°37'97895.7
2016-Aug-24 08:09N 29°49' E 122°01'6121036.7
2016-Aug-24 07:34N 23°02' E 113°31'96460860.4
2016-Aug-24 07:33N 37°35' E 121°23'45944666.1
2016-Aug-24 07:32N 29°58' E 122°15'9210073.9
2016-Aug-24 07:31N 31°24' E 121°37'28370.1
2016-Aug-24 07:27N 31°41' E 121°11'119431.8
2016-Aug-24 07:10N 29°49' E 122°01'1261474.6
2016-Aug-24 07:05N 31°45' E 121°04'6601236.2
2016-Aug-24 06:33N 23°02' E 113°31'65155808.5
2016-Aug-24 06:32N 31°59' E 120°26'428360.7
2016-Aug-24 06:32N 31°41' E 121°11'11760126.4
2016-Aug-24 06:32N 29°58' E 122°15'459330529.2
2016-Aug-24 06:32N 37°35' E 121°23'459231.1
2016-Aug-24 04:33N 29°58' E 122°15'459206580.8
2016-Aug-24 04:33N 37°35' E 121°23'35460716.9
2016-Aug-24 04:32N 31°41' E 121°11'6606508.8
2016-Aug-24 04:26N 23°02' E 113°31'6511899.7
2016-Aug-24 04:06N 31°59' E 120°26'6501214.0
2016-Aug-24 03:34N 23°03' E 113°31'65960873.6
2016-Aug-24 03:33N 31°41' E 121°11'11716832.4
2016-Aug-24 03:32N 29°58' E 122°15'4594708.5
2016-Aug-24 03:27N 37°35' E 121°23'459517.0
2016-Aug-24 02:33N 29°58' E 122°15'45938434.6
2016-Aug-24 02:33N 37°35' E 121°23'96312693.0
2016-Aug-24 02:28N 23°03' E 113°31'65950512.1
2016-Aug-24 02:27N 31°41' E 121°11'659733.2
2016-Aug-24 01:33N 23°03' E 113°31'626204914.8
2016-Aug-24 01:33N 29°58' E 122°15'4597795.6
2016-Aug-24 01:30N 37°35' E 121°23'3391725.7
2016-Aug-24 01:18N 31°59' E 120°26'650876.9
2016-Aug-24 00:33N 23°03' E 113°31'626187839.7
2016-Aug-24 00:33N 29°58' E 122°15'45955088.2
2016-Aug-24 00:33N 37°35' E 121°23'459465.7
2016-Aug-23 23:33N 29°58' E 122°15'45931782.1
2016-Aug-23 23:33N 37°35' E 121°23'459465.8
2016-Aug-23 22:33N 29°58' E 122°15'45933728.4
2016-Aug-23 22:33N 37°35' E 121°23'4663228.4
2016-Aug-23 22:24N 29°49' E 122°01'613618736.0
2016-Aug-23 22:04N 33°35' W 117°52'510.3
2016-Aug-23 21:33N 33°30' W 117°48'59031634717.9
2016-Aug-23 21:33N 37°35' E 121°23'45955088.2
2016-Aug-23 21:32N 29°58' E 122°15'151887.6
2016-Aug-23 21:32N 29°49' E 122°01'153682.4
2016-Aug-23 21:18N 31°59' E 120°26'65145959.9
2016-Aug-23 21:17N 23°02' E 113°31'627856.4
2016-Aug-23 20:33N 29°58' E 122°15'627451327.1
2016-Aug-23 20:33N 23°02' E 113°31'96473809.8
2016-Aug-23 20:33N 37°35' E 121°23'46644177.7
2016-Aug-23 20:32N 29°49' E 122°01'1533868.8
2016-Aug-23 20:30N 31°59' E 120°26'615351155.8
2016-Aug-23 20:22N 33°28' W 117°42'68368314.5
2016-Aug-23 19:33N 23°02' E 113°31'964138761.6
2016-Aug-23 19:33N 37°35' E 121°23'459150242.5
2016-Aug-23 19:32N 29°58' E 122°15'151100.8
2016-Aug-23 19:32N 29°49' E 122°01'111583.5
2016-Aug-23 19:20N 31°35' E 121°19'512902.0
2016-Aug-23 19:19N 31°59' E 120°26'615031406.4
2016-Aug-23 19:07N 33°28' W 117°44'612910827.3
2016-Aug-23 18:33N 29°58' E 122°15'151887.1
2016-Aug-23 18:33N 29°49' E 122°01'46672989.2
2016-Aug-23 18:33N 37°35' E 121°23'343137346.7
2016-Aug-23 18:32N 31°56' E 120°12'64227864.3
2016-Aug-23 18:31N 23°02' E 113°31'0 0.0
2016-Aug-23 17:33N 23°02' E 113°31'96470796.8
2016-Aug-23 17:33N 37°35' E 121°23'34317410.4
2016-Aug-23 17:31N 31°56' E 120°12'1599671.2
2016-Aug-23 17:30N 29°58' E 122°15'15251.6
2016-Aug-23 17:27N 29°49' E 122°01'991785.9
2016-Aug-23 17:24N 31°25' E 121°31'311.7
2016-Aug-23 17:08N 31°27' E 121°29'611.1
2016-Aug-23 16:34N 31°21' E 121°31'657473133.1
2016-Aug-23 16:33N 23°02' E 113°31'612220392.6
2016-Aug-23 16:33N 29°49' E 122°01'46639970.3
2016-Aug-23 16:33N 37°35' E 121°23'46219100.5
2016-Aug-23 16:31N 29°54' E 121°59'942050.0
2016-Aug-23 16:28N 31°25' E 121°32'754478.7
2016-Aug-23 16:27N 31°56' E 120°12'15935662.6
2016-Aug-23 16:27N 29°58' E 122°15'5055829.9
2016-Aug-23 16:22N 38°20' E 121°11'6 7.6
2016-Aug-23 15:33N 38°14' E 121°13'50638778.5
2016-Aug-23 15:33N 29°49' E 122°01'466559584.1
2016-Aug-23 15:33N 37°35' E 121°23'4597869.4
2016-Aug-23 15:29N 29°58' E 122°15'15816300.1
2016-Aug-23 15:28N 31°56' E 120°12'642100553.1
2016-Aug-23 15:28N 23°02' E 113°31'61412629.9
2016-Aug-23 15:25N 29°54' E 121°59'1517.2
2016-Aug-23 14:32N 29°55' E 122°16'162917.9
2016-Aug-23 14:22N 31°56' E 120°12'34316705.2
2016-Aug-23 14:21N 37°35' E 121°23'46683938.7
2016-Aug-23 14:20N 29°49' E 122°01'4977094.9
2016-Aug-23 14:16N 38°05' E 121°16'5 7.7
2016-Aug-23 13:33N 37°59' E 121°18'36533729.6
2016-Aug-23 13:33N 31°60' E 119°60'175104879.4
2016-Aug-23 13:33N 29°51' E 122°18'466335271.7
2016-Aug-23 13:33N 37°35' E 121°23'3434612.5
2016-Aug-23 13:28N 31°56' E 120°12'343377.2
2016-Aug-23 12:34N 37°35' E 121°23'46667056.7
2016-Aug-23 12:33N 29°51' E 122°18'1655499.4
2016-Aug-23 12:31N 31°56' E 120°12'5593.7
2016-Aug-23 12:31N 31°57' E 120°07'36010696.9
2016-Aug-23 12:29N 37°51' E 121°21'3911855.7
2016-Aug-23 12:16N 31°20' E 121°39'374526.5
2016-Aug-23 11:33N 37°34' E 121°25'101460.1
2016-Aug-23 11:33N 37°44' E 121°23'47427972.1
2016-Aug-23 11:32N 29°52' E 122°17'1001157.6
2016-Aug-23 11:27N 31°25' E 121°32'731963.5
2016-Aug-23 11:25N 31°57' E 120°15'346405.5
2016-Aug-23 10:33N 37°38' E 121°26'1995.7
2016-Aug-23 10:33N 37°37' E 121°26'46111852.2
2016-Aug-23 10:31N 29°58' E 122°15'460473.7
2016-Aug-23 09:33N 37°36' E 121°25'46037625.8
2016-Aug-23 09:32N 29°58' E 122°15'46027592.7
2016-Aug-23 09:31N 37°36' E 121°25'3417429.4
2016-Aug-23 09:28N 31°59' E 120°26'3435212.0
2016-Aug-23 09:24N 37°38' E 121°25'4707451.1
2016-Aug-23 09:21N 29°49' E 122°01'467593.8
2016-Aug-23 08:33N 37°36' E 121°25'353.1
2016-Aug-23 08:30N 37°38' E 121°25'96740026.8
2016-Aug-23 08:29N 23°02' E 113°31'627205153.7
2016-Aug-23 08:29N 29°58' E 122°15'4604180.7
2016-Aug-23 08:22N 37°36' E 121°25'364445.5
2016-Aug-23 07:33N 31°31' E 121°20'65884634.5
2016-Aug-23 07:33N 23°02' E 113°31'96725987.5
2016-Aug-23 07:30N 37°38' E 121°25'370.4
2016-Aug-23 07:28N 37°36' E 121°25'4605500.2
2016-Aug-23 07:23N 29°58' E 122°15'153919.4
2016-Aug-23 07:13N 31°59' E 120°26'343518.5
2016-Aug-23 06:33N 37°38' E 121°25'967151405.6
2016-Aug-23 06:33N 23°02' E 113°31'96391276.2
2016-Aug-23 06:32N 37°34' E 121°25'33971740.8
2016-Aug-23 06:32N 31°59' E 120°26'34020427.7
2016-Aug-23 06:31N 37°36' E 121°25'3531205.1
2016-Aug-23 06:14N 31°43' E 121°09'661987.7
2016-Aug-23 05:33N 23°02' E 113°31'969581433.4
2016-Aug-23 05:33N 37°40' E 121°24'61282.5
2016-Aug-23 05:33N 37°34' E 121°25'33911957.0
2016-Aug-23 05:31N 31°59' E 120°26'340111423.7
2016-Aug-23 05:31N 37°36' E 121°25'9651003.2
2016-Aug-23 04:33N 23°02' E 113°31'975501346.0
2016-Aug-23 04:33N 37°48' E 121°23'35257607.3
2016-Aug-23 04:33N 31°59' E 120°26'1536041.6
2016-Aug-23 04:31N 29°58' E 122°15'4608403.9
2016-Aug-23 04:28N 37°36' E 121°25'2 1.9
2016-Aug-23 03:34N 37°34' E 121°25'2137284.5
2016-Aug-23 03:33N 37°54' E 121°17'19491.6
2016-Aug-23 03:31N 37°36' E 121°25'46019946.8
2016-Aug-23 03:30N 29°58' E 122°15'6275599.8
2016-Aug-23 03:23N 23°02' E 113°31'9631163.2
2016-Aug-23 02:33N 37°34' E 121°25'352140761.9
2016-Aug-23 02:33N 31°42' E 121°09'37421395.7
2016-Aug-23 02:32N 37°57' E 121°08'25215.1
2016-Aug-23 02:25N 37°36' E 121°25'4603728.8
2016-Aug-23 02:18N 29°58' E 122°15'485657.1
2016-Aug-23 01:33N 37°58' E 120°58'317966.9
2016-Aug-23 01:33N 37°36' E 121°25'0 1.4
2016-Aug-23 01:31N 37°36' E 121°25'0 0.0
2016-Aug-23 00:33N 37°36' E 121°25'0 1.5
2016-Aug-23 00:31N 37°36' E 121°25'37214875.5
2016-Aug-23 00:30N 31°24' E 121°37'31150.9
2016-Aug-23 00:17N 31°42' E 121°08'354481.4
2016-Aug-22 23:33N 37°36' E 121°25'37231135.1
2016-Aug-22 23:33N 31°24' E 121°37'31774.8
2016-Aug-22 23:30N 31°42' E 121°08'35410116.4
2016-Aug-22 23:28N 37°36' E 121°25'460413895.9
2016-Aug-22 23:28N 29°58' E 122°15'112506.2
2016-Aug-22 23:15N 31°37' E 121°16'388562.8
2016-Aug-22 22:33N 38°03' E 120°26'404132172.6
2016-Aug-22 22:33N 31°24' E 121°37'9230126.2
2016-Aug-22 22:33N 29°58' E 122°15'460110372.6
2016-Aug-22 22:33N 37°36' E 121°25'0 1.7
2016-Aug-22 22:31N 37°36' E 121°25'361432947.8
2016-Aug-22 22:31N 31°35' E 121°19'6615530.3
2016-Aug-22 22:24N 23°02' E 113°31'9651146.8
2016-Aug-22 21:33N 37°35' E 121°25'61220707.9
2016-Aug-22 21:33N 38°05' E 120°17'6173300.5
2016-Aug-22 21:33N 37°36' E 121°25'46048693.8
2016-Aug-22 21:33N 29°58' E 122°15'1197009.9
2016-Aug-22 21:32N 31°42' E 121°08'319157.6
2016-Aug-22 21:32N 31°24' E 121°37'9715806.1
2016-Aug-22 21:31N 29°49' E 122°01'507526.0
2016-Aug-22 20:33N 38°07' E 120°09'6830548.1
2016-Aug-22 20:33N 37°36' E 121°25'35498053.0
2016-Aug-22 20:33N 31°42' E 121°08'357183681.7
2016-Aug-22 20:33N 37°39' E 121°27'37510969.7
2016-Aug-22 20:31N 31°24' E 121°37'923811.9
2016-Aug-22 20:30N 29°58' E 122°15'62732238.5
2016-Aug-22 20:28N 23°02' E 113°31'61217773.8
2016-Aug-22 20:26N 29°49' E 122°01'510578.8
2016-Aug-22 19:33N 38°09' E 120°01'7444297.5
2016-Aug-22 19:33N 37°46' E 121°29'113568.8
2016-Aug-22 19:33N 37°36' E 121°25'35484977.8
2016-Aug-22 19:33N 31°42' E 121°08'119106906.4
2016-Aug-22 19:33N 29°58' E 122°15'9222107.9
2016-Aug-22 19:33N 31°24' E 121°37'663149148.1
2016-Aug-22 19:32N 23°02' E 113°31'966984.7
2016-Aug-22 18:33N 38°10' E 119°52'507101379.2
2016-Aug-22 18:33N 29°58' E 122°15'460165558.9
2016-Aug-22 18:33N 37°36' E 121°25'35470816.1
2016-Aug-22 18:33N 31°42' E 121°08'660297025.2
2016-Aug-22 18:33N 23°02' E 113°31'61222720.9
2016-Aug-22 18:31N 29°49' E 122°01'97915.6
2016-Aug-22 18:25N 31°24' E 121°37'418490.9
2016-Aug-22 17:33N 38°12' E 119°42'899657.4
2016-Aug-22 17:33N 37°36' E 121°25'3542747.2
2016-Aug-22 17:25N 31°42' E 121°08'302030.6
2016-Aug-22 17:24N 31°24' E 121°37'97754.7
2016-Aug-22 17:17N 29°49' E 122°01'467650.4
2016-Aug-22 16:34N 37°36' E 121°25'9653474057.7
2016-Aug-22 16:33N 23°02' E 113°31'66030078.5
2016-Aug-22 16:32N 31°42' E 121°08'39865203.5
2016-Aug-22 16:32N 38°12' E 119°32'4217220.5
2016-Aug-22 16:28N 31°24' E 121°37'372403.5
2016-Aug-22 15:33N 37°36' E 121°25'37260847.9
2016-Aug-22 15:33N 31°24' E 121°37'301261.8
2016-Aug-22 15:31N 31°42' E 121°08'66019477.5
2016-Aug-22 15:29N 23°02' E 113°31'6272018.5
2016-Aug-22 15:11N 29°58' E 122°15'460740.4
2016-Aug-22 14:33N 37°36' E 121°25'460413913.3
2016-Aug-22 14:33N 29°58' E 122°15'929749.2
2016-Aug-22 14:33N 31°24' E 121°37'43111842.1
2016-Aug-22 14:30N 38°18' E 119°10'3806240.5
2016-Aug-22 14:27N 32°04' E 120°32'18533.0
2016-Aug-22 14:25N 31°56' E 120°12'5019910.7
2016-Aug-22 14:25N 31°42' E 121°08'119139.3
2016-Aug-22 13:33N 29°58' E 122°15'46091981.9
2016-Aug-22 13:33N 37°36' E 121°25'123442663.9
2016-Aug-22 13:33N 38°18' E 118°59'38743525.2
2016-Aug-22 13:33N 31°56' E 120°12'1536621.8
2016-Aug-22 13:31N 29°54' E 121°59'9230020.5
2016-Aug-22 13:31N 31°24' E 121°37'311465.2
2016-Aug-22 13:30N 31°42' E 121°08'38460.9
2016-Aug-22 13:25N 32°04' E 120°32'1541788.1
2016-Aug-22 13:20N 29°49' E 122°01'6122550.9
2016-Aug-22 13:05N 23°02' E 113°31'6271184.0
2016-Aug-22 12:33N 29°58' E 122°15'119427682.8
2016-Aug-22 12:33N 31°42' E 121°08'3113736.4
2016-Aug-22 12:33N 31°24' E 121°37'37278755.8
2016-Aug-22 12:33N 37°36' E 121°25'674632.5
2016-Aug-22 12:32N 38°41' E 121°42'41122786.8
2016-Aug-22 12:31N 31°56' E 120°12'15717166.5
2016-Aug-22 12:31N 29°49' E 122°01'61259551.2
2016-Aug-22 12:30N 23°01' E 113°32'6583516.8
2016-Aug-22 12:19N 32°04' E 120°32'158210.4
2016-Aug-22 11:34N 29°53' E 122°16'536964073.5
2016-Aug-22 11:34N 38°48' E 121°44'7510782.8
2016-Aug-22 11:33N 37°35' E 121°25'37147710.3
2016-Aug-22 11:33N 31°24' E 121°37'312442.0
2016-Aug-22 11:32N 31°42' E 121°08'5013794.0
2016-Aug-22 11:32N 31°56' E 120°12'1573045.6
2016-Aug-22 11:29N 29°49' E 122°01'728.2
2016-Aug-22 11:13N 29°55' E 122°07'53432590.4
2016-Aug-22 11:12N 38°18' E 118°31'6 9.3
2016-Aug-22 10:33N 38°17' E 118°23'146524083.8
2016-Aug-22 10:33N 37°41' E 121°22'47280938.6
2016-Aug-22 10:33N 29°51' E 122°18'15701.2
2016-Aug-22 10:32N 29°49' E 122°01'157141607.7
2016-Aug-22 10:32N 31°56' E 120°12'791165.5
2016-Aug-22 10:28N 31°24' E 121°37'312388.9
2016-Aug-22 10:27N 31°42' E 121°08'125140.1
2016-Aug-22 09:33N 29°52' E 122°17'9618116.5
2016-Aug-22 09:33N 31°22' E 121°39'44870073.9
2016-Aug-22 09:33N 38°16' E 118°12'14748043.3
2016-Aug-22 09:33N 37°46' E 121°15'364655647.8
2016-Aug-22 09:33N 31°42' E 121°08'306454.7
2016-Aug-22 09:32N 31°24' E 121°37'793136.9
2016-Aug-22 09:31N 31°56' E 120°12'7982.7
2016-Aug-22 08:33N 31°24' E 121°37'387174218.2
2016-Aug-22 08:33N 37°50' E 121°08'35716903.3
2016-Aug-22 08:32N 31°56' E 120°12'50467.2
2016-Aug-22 08:25N 31°42' E 121°08'1241180.1
2016-Aug-22 08:19N 29°53' E 122°18'415544.2
2016-Aug-22 07:33N 36°48' E 122°28'41543953.7
2016-Aug-22 07:33N 29°53' E 122°18'9724999.7
2016-Aug-22 07:33N 31°24' E 121°37'79819.7
2016-Aug-22 07:27N 31°56' E 120°12'50219.6
2016-Aug-22 07:13N 31°42' E 121°08'37415311.1
2016-Aug-22 07:12N 37°56' E 120°59'3533189.3
2016-Aug-22 07:05N 32°04' E 120°31'309580.4
2016-Aug-22 06:33N 36°55' E 122°37'10326416.4
2016-Aug-22 06:33N 37°58' E 120°54'35524543.1
2016-Aug-22 06:32N 32°04' E 120°31'392913.3
2016-Aug-22 06:31N 31°42' E 121°08'50612.3
2016-Aug-22 06:26N 31°56' E 120°12'794456.9
2016-Aug-22 06:25N 31°24' E 121°37'345395.5
2016-Aug-22 05:33N 37°05' E 122°40'33262860.8
2016-Aug-22 05:33N 31°56' E 120°12'792852.4
2016-Aug-22 05:31N 31°24' E 121°37'301586.3
2016-Aug-22 05:30N 31°42' E 121°08'0 0.0
2016-Aug-22 04:33N 31°42' E 121°08'502242.4
2016-Aug-22 04:32N 31°56' E 120°12'5051.0
2016-Aug-22 03:33N 31°42' E 121°08'50676.9
2016-Aug-22 03:29N 31°56' E 120°12'6150112377.8
2016-Aug-22 03:25N 33°37' W 117°55'61507097.9
2016-Aug-22 02:33N 31°56' E 120°12'5012813.6
2016-Aug-22 02:33N 31°42' E 121°08'3861362.7
2016-Aug-22 02:16N 38°05' E 120°15'386533.2
2016-Aug-22 01:33N 31°42' E 121°08'501645.8
2016-Aug-22 01:31N 31°56' E 120°12'165635.2
2016-Aug-22 01:15N 29°46' E 122°11'1070.5
2016-Aug-22 01:07N 29°53' E 122°18'2 3.6
2016-Aug-22 00:33N 29°54' E 122°16'121265.9
2016-Aug-22 00:33N 29°42' E 122°16'1712905.1
2016-Aug-22 00:29N 31°56' E 120°12'50468.1
2016-Aug-22 00:23N 31°42' E 121°09'117710.6
2016-Aug-22 00:13N 29°54' E 121°59'913.9
2016-Aug-21 23:33N 29°52' E 122°09'12211275.9
2016-Aug-21 23:33N 31°42' E 121°09'423201.7
2016-Aug-21 23:32N 32°03' E 120°26'157360.5
2016-Aug-21 23:06N 29°49' E 122°01'122218.4
2016-Aug-21 22:33N 31°42' E 121°09'12210674.0
2016-Aug-21 22:32N 29°49' E 122°01'7246.8
2016-Aug-21 22:30N 29°51' E 122°09'160192123.0
2016-Aug-21 22:30N 31°56' E 120°12'160169.8
2016-Aug-21 21:33N 29°51' E 122°09'12344111.5
2016-Aug-21 21:33N 31°42' E 121°09'505004.6
2016-Aug-21 21:33N 31°56' E 120°12'4145.4
2016-Aug-21 21:31N 31°57' E 120°17'1563785.9
2016-Aug-21 21:29N 29°49' E 122°01'7 8.0
2016-Aug-21 20:33N 29°51' E 122°09'93973.7
2016-Aug-21 20:33N 29°44' E 122°14'1702176.0
2016-Aug-21 20:29N 31°56' E 120°09'531896.9
2016-Aug-21 20:27N 31°43' E 121°09'12224332.8
2016-Aug-21 20:27N 29°49' E 122°01'1574391.6
2016-Aug-21 20:25N 31°56' E 120°12'42550.9
2016-Aug-21 20:20N 31°45' E 121°00'128165.4
2016-Aug-21 19:33N 29°51' E 122°09'71212.0
2016-Aug-21 19:33N 29°49' E 122°01'1228112.0
2016-Aug-21 19:32N 31°43' E 121°09'50503.6
2016-Aug-21 19:26N 31°56' E 120°12'1573005.3
2016-Aug-21 19:23N 29°54' E 122°08'8118.9
2016-Aug-21 19:19N 29°54' E 121°59'1662594.7
2016-Aug-21 19:15N 32°02' E 119°56'173245.0
2016-Aug-21 18:33N 29°51' E 122°09'12349045.3
2016-Aug-21 18:33N 31°43' E 121°09'502332.7
2016-Aug-21 18:31N 31°56' E 120°12'157626.7
2016-Aug-21 18:16N 29°49' E 122°01'710.4
2016-Aug-21 17:33N 29°51' E 122°09'7180.7
2016-Aug-21 17:31N 29°49' E 122°01'15735405.9
2016-Aug-21 17:30N 31°56' E 120°12'5012831.0
2016-Aug-21 17:30N 31°43' E 121°09'29613.1
2016-Aug-21 17:27N 31°23' E 121°34'97106.7
2016-Aug-21 16:33N 29°51' E 122°09'1222670.8
2016-Aug-21 16:30N 31°42' E 121°09'1223587.2
2016-Aug-21 16:28N 29°49' E 122°01'1571102.1
2016-Aug-21 16:20N 31°56' E 120°12'160205.9
2016-Aug-21 15:33N 29°51' E 122°09'12262954.8
2016-Aug-21 15:33N 31°42' E 121°09'119484.0
2016-Aug-21 15:18N 29°54' E 122°07'780.9
2016-Aug-21 15:13N 29°54' E 121°59'1531583.8
2016-Aug-21 15:07N 31°56' E 120°12'160283.6
2016-Aug-21 14:34N 29°51' E 122°09'12215740.8
2016-Aug-21 14:33N 31°42' E 121°09'503677.7
2016-Aug-21 14:32N 31°56' E 120°12'1572563.3
2016-Aug-21 14:29N 29°49' E 122°01'1554655.2
2016-Aug-21 14:27N 32°04' E 120°31'157177.1
2016-Aug-21 13:33N 29°51' E 122°09'12225921.4
2016-Aug-21 13:33N 31°42' E 121°09'50298.4
2016-Aug-21 13:23N 31°56' E 120°12'160192.6
2016-Aug-21 12:33N 29°51' E 122°09'122440625.2
2016-Aug-21 12:33N 31°42' E 121°09'1226531.8
2016-Aug-21 12:32N 29°49' E 122°01'1571609.4
2016-Aug-21 12:26N 31°56' E 120°12'0 0.0
2016-Aug-21 11:33N 31°56' E 120°12'182043.8
2016-Aug-21 11:33N 32°04' E 120°31'15693330.7
2016-Aug-21 11:33N 29°53' E 122°09'9343.2
2016-Aug-21 11:31N 29°49' E 122°01'1221683.2
2016-Aug-21 11:27N 31°42' E 121°09'117887.9
2016-Aug-21 11:19N 29°54' E 121°59'1012.7
2016-Aug-21 10:34N 29°59' E 122°08'1531791.2
2016-Aug-21 10:28N 31°56' E 120°12'50553.9
2016-Aug-21 10:23N 31°42' E 121°09'115138.1
2016-Aug-21 09:33N 29°59' E 122°08'1151288.6
2016-Aug-21 09:28N 31°43' E 121°09'501649.9
2016-Aug-21 09:26N 31°56' E 120°12'1591269.3
2016-Aug-21 09:18N 29°55' E 122°12'5 7.2
2016-Aug-21 08:33N 29°59' E 122°08'1154402.8
2016-Aug-21 08:32N 31°43' E 121°09'50246.6
2016-Aug-21 08:20N 31°56' E 120°12'6442781.7
2016-Aug-21 08:06N 22°59' E 113°31'6241157.5
2016-Aug-21 07:34N 29°58' E 122°07'11613907.1
2016-Aug-21 07:33N 31°43' E 121°09'50210.7
2016-Aug-21 07:19N 31°56' E 120°12'158209.7
2016-Aug-21 06:34N 29°55' E 122°12'62354715.1
2016-Aug-21 06:33N 23°01' E 113°32'661396612.3
2016-Aug-21 06:33N 31°43' E 121°09'50278.7
2016-Aug-21 06:22N 31°56' E 120°12'420517.2
2016-Aug-21 05:33N 38°49' E 121°46'538120950.9
2016-Aug-21 05:33N 29°52' E 122°17'14833.8
2016-Aug-21 05:32N 29°49' E 122°01'61210543.3
2016-Aug-21 05:29N 23°01' E 113°32'66125316.2
2016-Aug-21 05:27N 31°43' E 121°09'421470.2
2016-Aug-21 04:33N 38°42' E 121°44'421757509.2
2016-Aug-21 04:33N 31°42' E 121°09'50464.4
2016-Aug-21 04:27N 31°56' E 120°12'5055.3
2016-Aug-21 03:33N 31°42' E 121°09'4133696.4
2016-Aug-21 03:26N 38°34' E 121°43'10244535.4
2016-Aug-21 03:12N 23°01' E 113°32'661966.2
2016-Aug-21 02:31N 31°42' E 121°09'66117497.6
2016-Aug-21 02:29N 23°01' E 113°32'6122703.8
2016-Aug-21 02:15N 29°49' E 122°01'612872.4
2016-Aug-21 01:33N 23°01' E 113°32'62589972.4
2016-Aug-21 01:33N 29°51' E 122°18'12618920.1
2016-Aug-21 01:32N 31°42' E 121°09'661669.6
2016-Aug-21 00:33N 23°01' E 113°32'66136610.4
2016-Aug-21 00:32N 31°42' E 121°09'1213680.0
2016-Aug-21 00:30N 29°57' E 122°16'1575.0
2016-Aug-21 00:18N 29°49' E 122°01'1519.8
2016-Aug-20 23:34N 29°58' E 122°15'1198757.3
2016-Aug-20 23:33N 31°42' E 121°09'6618205.8
2016-Aug-20 23:28N 23°01' E 113°32'6122319.5
2016-Aug-20 23:12N 29°49' E 122°01'613343804.7
2016-Aug-20 23:04N 33°36' W 117°55'611612184.5
2016-Aug-20 22:34N 29°58' E 122°15'1196811.5
2016-Aug-20 22:32N 31°43' E 121°09'61031156376.5
2016-Aug-20 22:32N 33°39' W 118°01'68146968.5
2016-Aug-20 21:33N 23°01' E 113°32'62759385.8
2016-Aug-20 21:33N 29°57' E 122°15'47853.2
2016-Aug-20 21:33N 29°55' E 122°11'12019694.1
2016-Aug-20 21:32N 31°43' E 121°09'1229948.5
2016-Aug-20 21:32N 29°49' E 122°01'4812267.6
2016-Aug-20 21:19N 37°49' E 121°31'6 8.1
2016-Aug-20 20:33N 37°43' E 121°29'472154536.6
2016-Aug-20 20:33N 29°53' E 122°17'1444.1
2016-Aug-20 20:14N 29°49' E 122°01'6125042.5
2016-Aug-20 20:07N 23°01' E 113°32'9661742.4
2016-Aug-20 19:33N 37°35' E 121°27'46617125.8
2016-Aug-20 19:32N 29°51' E 122°18'151861.9
2016-Aug-20 19:31N 29°49' E 122°01'612137722.8
2016-Aug-20 19:31N 23°01' E 113°32'9641002.4
2016-Aug-20 18:33N 37°33' E 121°28'46452193.3
2016-Aug-20 18:33N 29°51' E 122°18'62512219.8
2016-Aug-20 18:30N 23°01' E 113°32'61217488.6
2016-Aug-20 18:28N 29°49' E 122°01'613316116.4
2016-Aug-20 18:05N 33°37' W 117°54'589111287.2
2016-Aug-20 17:34N 37°33' E 121°28'46518381.0
2016-Aug-20 17:32N 29°49' E 122°01'612550891.2
2016-Aug-20 17:32N 23°01' E 113°32'6141862.1
2016-Aug-20 17:12N 29°48' E 122°05'466721.4
2016-Aug-20 16:33N 37°33' E 121°28'96454238.0
2016-Aug-20 16:32N 23°01' E 113°32'6614280.0
2016-Aug-20 16:23N 31°43' E 121°09'351424.0
2016-Aug-20 15:33N 37°33' E 121°28'3514860.3
2016-Aug-20 15:29N 31°42' E 121°09'6611572.8
2016-Aug-20 15:04N 23°01' E 113°32'9641901.0
2016-Aug-20 14:33N 37°33' E 121°28'35119745.0
2016-Aug-20 14:32N 31°42' E 121°09'351358.3
2016-Aug-20 13:34N 37°33' E 121°28'964578551.4
2016-Aug-20 13:33N 23°01' E 113°32'66114689.7
2016-Aug-20 13:31N 31°42' E 121°09'117605.2
2016-Aug-20 13:19N 29°54' E 121°59'478626.6
2016-Aug-20 12:33N 37°51' E 121°17'977234369.6
2016-Aug-20 12:33N 23°01' E 113°32'6617300.7
2016-Aug-20 12:28N 31°42' E 121°09'117341.2
2016-Aug-20 12:07N 29°54' E 121°59'471841.1
2016-Aug-20 11:34N 37°44' E 121°21'1214988.3
2016-Aug-20 11:33N 37°33' E 121°28'96455993.0
2016-Aug-20 11:32N 23°01' E 113°32'61246890.7
2016-Aug-20 11:32N 29°49' E 122°01'1222221.6
2016-Aug-20 11:28N 31°42' E 121°09'117755.4
2016-Aug-20 11:19N 29°54' E 121°59'911899.7
2016-Aug-20 11:16N 31°21' E 121°30'372520.3
2016-Aug-20 10:33N 37°33' E 121°28'6173.3
2016-Aug-20 10:31N 37°38' E 121°25'96711886.7
2016-Aug-20 10:27N 23°01' E 113°31'6126638.1
2016-Aug-20 10:21N 29°49' E 122°01'5157.7
2016-Aug-20 10:19N 29°54' E 121°59'912.4
2016-Aug-20 09:34N 29°49' E 122°08'465209369.6
2016-Aug-20 09:33N 37°33' E 121°28'46012264.8
2016-Aug-20 09:31N 29°54' E 121°59'46510334.3
2016-Aug-20 09:28N 37°38' E 121°25'4707583.7
2016-Aug-20 09:25N 29°49' E 122°01'465543.1
2016-Aug-20 08:33N 37°33' E 121°28'46332075.1
2016-Aug-20 08:33N 29°52' E 122°15'46825171.1
2016-Aug-20 08:31N 37°38' E 121°25'4703389.1
2016-Aug-20 08:23N 29°49' E 122°01'465562.9
2016-Aug-20 07:34N 37°33' E 121°28'37215393.7
2016-Aug-20 07:32N 31°21' E 121°31'37732314.4
2016-Aug-20 07:31N 37°38' E 121°25'47014093.2
2016-Aug-20 07:29N 29°49' E 122°01'73290.7
2016-Aug-20 07:29N 29°55' E 122°06'1141.5
2016-Aug-20 07:13N 29°51' E 122°18'464699.4
2016-Aug-20 06:33N 37°33' E 121°28'37234294.2
2016-Aug-20 06:33N 31°22' E 121°28'285.8
2016-Aug-20 06:31N 31°21' E 121°31'999869.8
2016-Aug-20 06:31N 29°51' E 122°18'46913296.4
2016-Aug-20 06:28N 37°38' E 121°25'96730819.6
2016-Aug-20 06:27N 23°02' E 113°31'61225335.8
2016-Aug-20 06:25N 29°49' E 122°01'1222826.1
2016-Aug-20 06:22N 31°43' E 121°09'351428.9
2016-Aug-20 05:33N 37°33' E 121°28'96468043.0
2016-Aug-20 05:33N 23°01' E 113°31'96750465.9
2016-Aug-20 05:31N 37°38' E 121°25'37712567.3
2016-Aug-20 05:30N 31°21' E 121°31'994280.9
2016-Aug-20 05:28N 29°51' E 122°18'15259.6
2016-Aug-20 05:25N 29°49' E 122°01'973187.5
2016-Aug-20 05:23N 31°22' E 121°28'371451.1
2016-Aug-20 04:33N 37°33' E 121°28'9643470136.0
2016-Aug-20 04:33N 23°01' E 113°31'65726876.5
2016-Aug-20 04:32N 31°21' E 121°31'28101919.1
2016-Aug-20 04:32N 31°43' E 121°09'12225749.1
2016-Aug-20 04:32N 29°49' E 122°01'151062.3
2016-Aug-20 04:31N 29°51' E 122°18'10010014.6
2016-Aug-20 04:30N 31°22' E 121°28'37612101.4
2016-Aug-20 04:28N 37°38' E 121°25'376411.6
2016-Aug-20 03:34N 31°22' E 121°28'3711337343.2
2016-Aug-20 03:33N 37°33' E 121°28'96482621.4
2016-Aug-20 03:33N 23°01' E 113°31'96740967.3
2016-Aug-20 03:31N 37°38' E 121°25'35612087.5
2016-Aug-20 03:30N 31°43' E 121°09'351375.3
2016-Aug-20 02:33N 37°33' E 121°28'964150873.8
2016-Aug-20 02:33N 23°01' E 113°31'6612378895.8
2016-Aug-20 02:33N 31°43' E 121°09'35612685.9
2016-Aug-20 02:31N 37°38' E 121°25'37611994.3
2016-Aug-20 02:30N 31°22' E 121°28'656701.6
2016-Aug-20 01:33N 23°01' E 113°31'964867524.4
2016-Aug-20 01:33N 37°33' E 121°28'6166.7
2016-Aug-20 01:31N 37°38' E 121°25'376169248.8
2016-Aug-20 01:31N 31°22' E 121°30'132.4
2016-Aug-20 01:29N 31°22' E 121°28'610639750.3
2016-Aug-20 01:19N 33°37' W 117°55'58917686.6
2016-Aug-20 00:33N 37°33' E 121°28'619851.2
2016-Aug-20 00:33N 37°38' E 121°25'96748365.8
2016-Aug-20 00:32N 23°02' E 113°31'656118087.1
2016-Aug-20 00:32N 31°22' E 121°28'26291.3
2016-Aug-20 00:26N 31°43' E 121°09'271599.7
2016-Aug-20 00:25N 31°23' E 121°30'6104122082.3
2016-Aug-20 00:22N 33°37' W 117°55'58907207.9
2016-Aug-19 23:33N 37°38' E 121°25'63966.3
2016-Aug-19 23:33N 37°33' E 121°28'35123401.7
2016-Aug-19 23:32N 31°43' E 121°09'6615264.5
2016-Aug-19 23:25N 23°02' E 113°31'65613268.3
2016-Aug-19 23:22N 31°22' E 121°28'375464.4
2016-Aug-19 22:34N 37°37' E 121°26'46787.5
2016-Aug-19 22:33N 37°33' E 121°28'35116201.8
2016-Aug-19 22:32N 31°43' E 121°09'12610811.8
2016-Aug-19 22:31N 29°51' E 122°18'6257189.1
2016-Aug-19 22:26N 23°02' E 113°31'65639364.7
2016-Aug-19 22:25N 31°22' E 121°28'6106132421.0
2016-Aug-19 22:23N 33°37' W 117°55'58947211.8
2016-Aug-19 21:33N 37°35' E 121°23'47421.7
2016-Aug-19 21:33N 37°33' E 121°28'463104274.2
2016-Aug-19 21:33N 29°51' E 122°14'12203.0
2016-Aug-19 21:30N 29°49' E 122°01'974632.2
2016-Aug-19 21:28N 31°22' E 121°28'6561838.0
2016-Aug-19 21:07N 23°02' E 113°31'9641724.0
2016-Aug-19 20:33N 37°33' E 121°28'465278794.2
2016-Aug-19 20:33N 29°49' E 122°01'467336027.8
2016-Aug-19 20:33N 37°35' E 121°23'362130279.0
2016-Aug-19 20:33N 31°33' E 121°19'14571.1
2016-Aug-19 20:32N 31°22' E 121°28'991149.5
2016-Aug-19 20:27N 29°48' E 122°08'1077.9
2016-Aug-19 20:19N 29°54' E 121°59'460604.5
2016-Aug-19 19:33N 37°33' E 121°28'47421.7
2016-Aug-19 19:33N 37°35' E 121°23'3738900.6
2016-Aug-19 19:31N 31°22' E 121°28'973695.9
2016-Aug-19 19:29N 29°49' E 122°01'6121836.7
2016-Aug-19 19:09N 23°02' E 113°31'9641609.6
2016-Aug-19 18:33N 37°33' E 121°28'41649.3
2016-Aug-19 18:33N 37°35' E 121°23'46717873.8
2016-Aug-19 18:32N 29°49' E 122°01'6127574.0
2016-Aug-19 18:27N 23°02' E 113°31'65628801.4
2016-Aug-19 18:26N 31°22' E 121°28'9215703.7
2016-Aug-19 18:25N 29°54' E 121°59'460534.1
2016-Aug-19 17:33N 37°33' E 121°28'41350.3
2016-Aug-19 17:33N 37°35' E 121°23'46212793.1
2016-Aug-19 17:31N 29°54' E 121°59'5166.6
2016-Aug-19 17:29N 29°49' E 122°01'971378.6
2016-Aug-19 17:25N 31°22' E 121°28'65623617.0
2016-Aug-19 17:24N 23°02' E 113°31'9641156.3
2016-Aug-19 16:33N 37°33' E 121°28'414871.7
2016-Aug-19 16:33N 37°35' E 121°23'373335993.6
2016-Aug-19 16:33N 31°22' E 121°28'6563616.7
2016-Aug-19 16:23N 23°02' E 113°31'9641180.7
2016-Aug-19 15:34N 37°33' E 121°28'41144.0
2016-Aug-19 15:33N 37°35' E 121°23'3537381.9
2016-Aug-19 15:30N 31°43' E 121°09'66144895.8
2016-Aug-19 15:30N 23°02' E 113°31'65640028.8
2016-Aug-19 15:29N 31°22' E 121°28'373406.5
2016-Aug-19 14:33N 37°35' E 121°23'42507.4
2016-Aug-19 14:33N 37°33' E 121°28'37114536.1
2016-Aug-19 14:32N 31°22' E 121°28'6566247.8
2016-Aug-19 14:26N 23°02' E 113°31'61222721.8
2016-Aug-19 14:24N 29°49' E 122°01'122915.6
2016-Aug-19 14:16N 31°43' E 121°09'353498.1
2016-Aug-19 13:33N 37°35' E 121°23'42147.9
2016-Aug-19 13:33N 37°33' E 121°28'37158145.3
2016-Aug-19 13:33N 31°22' E 121°28'65653676.9
2016-Aug-19 13:32N 23°02' E 113°31'6426883.3
2016-Aug-19 13:27N 31°56' E 120°12'50622.0
2016-Aug-19 13:22N 31°42' E 121°09'351436.1
2016-Aug-19 12:34N 37°33' E 121°28'43717.9
2016-Aug-19 12:33N 37°35' E 121°23'3739955.4
2016-Aug-19 12:31N 31°22' E 121°28'263073.1
2016-Aug-19 12:31N 31°42' E 121°09'1252841.2
2016-Aug-19 12:28N 29°47' E 122°03'1612848.0
2016-Aug-19 12:25N 31°56' E 120°12'153794.4
2016-Aug-19 12:13N 29°54' E 121°59'462698.5
2016-Aug-19 11:33N 37°35' E 121°23'4671679698.8
2016-Aug-19 11:33N 29°50' E 122°09'464418031.9
2016-Aug-19 11:33N 37°33' E 121°28'35131592.9
2016-Aug-19 11:33N 31°43' E 121°09'5013875.5
2016-Aug-19 11:32N 31°56' E 120°12'734471.3
2016-Aug-19 11:32N 31°22' E 121°28'6562894.4
2016-Aug-19 11:18N 23°02' E 113°31'9641301.9
2016-Aug-19 10:33N 37°34' E 121°25'465334822.9
2016-Aug-19 10:33N 29°51' E 122°17'10029860.1
2016-Aug-19 10:33N 31°22' E 121°28'65640028.7
2016-Aug-19 10:32N 23°02' E 113°31'66126735.7
2016-Aug-19 10:31N 31°43' E 121°09'50691.1
2016-Aug-19 10:26N 31°56' E 120°12'153567.3
2016-Aug-19 10:10N 29°54' E 121°59'469765.4
2016-Aug-19 09:33N 37°42' E 121°24'98485.1
2016-Aug-19 09:33N 37°33' E 121°28'34388101.6
2016-Aug-19 09:33N 31°56' E 120°12'5010011.7
2016-Aug-19 09:33N 31°43' E 121°09'126226984.3
2016-Aug-19 09:33N 29°51' E 122°18'151148.8
2016-Aug-19 09:32N 29°49' E 122°01'6127626.6
2016-Aug-19 09:27N 23°02' E 113°31'65617625.4
2016-Aug-19 09:25N 31°22' E 121°28'92945.0
2016-Aug-19 09:19N 29°54' E 121°59'477627.1
2016-Aug-19 08:33N 37°50' E 121°18'1922450.7
2016-Aug-19 08:33N 37°33' E 121°28'46430366.8
2016-Aug-19 08:33N 29°51' E 122°18'135379.5
2016-Aug-19 08:32N 29°48' E 122°03'9822023.4
2016-Aug-19 08:32N 31°22' E 121°28'7310551.8
2016-Aug-19 08:32N 31°56' E 120°12'64218210.2
2016-Aug-19 08:30N 23°02' E 113°31'661158617.2
2016-Aug-19 08:29N 31°42' E 121°09'213.7
2016-Aug-19 08:20N 31°41' E 121°10'353454.9
2016-Aug-19 07:34N 37°33' E 121°28'274412.3
2016-Aug-19 07:33N 37°56' E 121°10'4861750957.1
2016-Aug-19 07:33N 29°53' E 122°17'12412081.1
2016-Aug-19 07:33N 31°43' E 121°09'2184.5
2016-Aug-19 07:32N 31°43' E 121°07'4814503.9
2016-Aug-19 07:32N 31°56' E 120°12'739096.4
2016-Aug-19 07:31N 31°22' E 121°28'6565904.4
2016-Aug-19 07:25N 23°02' E 113°31'9641128.6
2016-Aug-19 06:33N 37°33' E 121°28'457126655.6
2016-Aug-19 06:33N 29°58' E 122°15'62731785.2
2016-Aug-19 06:32N 23°02' E 113°31'66127040.2
2016-Aug-19 06:31N 31°43' E 121°09'37561400.4
2016-Aug-19 06:30N 37°58' E 121°01'3979848.5
2016-Aug-19 06:28N 31°22' E 121°28'731691.0
2016-Aug-19 06:25N 31°56' E 120°12'159184.0
2016-Aug-19 05:33N 29°58' E 122°15'457822778.9
2016-Aug-19 05:33N 37°33' E 121°28'964693952.8
2016-Aug-19 05:33N 23°02' E 113°31'66133512.5
2016-Aug-19 05:32N 31°43' E 121°09'271018.1
2016-Aug-19 05:31N 31°22' E 121°28'9398.0
2016-Aug-19 04:33N 29°58' E 122°15'627451343.0
2016-Aug-19 04:33N 23°02' E 113°31'961314399.8
2016-Aug-19 04:33N 37°27' E 121°34'337101216.5
2016-Aug-19 04:33N 31°56' E 120°12'160144194.9
2016-Aug-19 04:33N 29°46' E 122°01'12540829.3
2016-Aug-19 04:33N 31°43' E 121°09'27547.1
2016-Aug-19 04:30N 31°22' E 121°28'2 5.4
2016-Aug-19 04:11N 31°23' E 121°30'93149.8
2016-Aug-19 03:34N 29°58' E 122°15'136829.4
2016-Aug-19 03:33N 29°50' E 122°03'457329344.3
2016-Aug-19 03:33N 37°27' E 121°35'36565674.6
2016-Aug-19 03:33N 31°22' E 121°28'262268.6
2016-Aug-19 03:32N 31°43' E 121°09'3012162.6
2016-Aug-19 03:32N 31°22' E 121°36'792249.4
2016-Aug-19 03:30N 31°56' E 120°12'15418525.4
2016-Aug-19 03:30N 29°57' E 122°07'152452.4
2016-Aug-19 03:09N 31°57' E 120°17'438732.6
2016-Aug-19 02:33N 38°57' E 117°45'584140092.1
2016-Aug-19 02:33N 29°58' E 122°15'450202574.2
2016-Aug-19 02:33N 37°27' E 121°35'36539803.5
2016-Aug-19 02:33N 31°22' E 121°28'65678716.4
2016-Aug-19 02:32N 23°02' E 113°31'6414203.7
2016-Aug-19 02:23N 31°56' E 120°11'519702.4
2016-Aug-19 02:23N 31°42' E 121°09'1152409.3
2016-Aug-19 02:20N 29°59' E 122°09'154947.4
2016-Aug-19 02:10N 31°56' E 120°12'6421056.0
2016-Aug-19 01:33N 23°02' E 113°31'9611152743.6
2016-Aug-19 01:33N 37°27' E 121°35'450101284.9
2016-Aug-19 01:33N 29°58' E 122°15'932266.4
2016-Aug-19 01:31N 31°22' E 121°28'26670.3
2016-Aug-19 01:28N 31°43' E 121°09'50693.8
2016-Aug-19 01:24N 31°56' E 120°12'4651644.3
2016-Aug-19 01:07N 24°26' E 118°02'8021431.9
2016-Aug-19 00:33N 37°27' E 121°35'4501620558.9
2016-Aug-19 00:33N 29°58' E 122°15'397238310.0
2016-Aug-19 00:33N 24°29' E 118°04'39636530.8
2016-Aug-19 00:33N 29°59' E 122°09'115413173.1
2016-Aug-19 00:33N 31°42' E 121°08'26420.4
2016-Aug-19 00:29N 31°22' E 121°28'73638.4
2016-Aug-19 00:22N 31°56' E 120°12'6424910.2
2016-Aug-19 00:14N 23°02' E 113°31'0 0.0
2016-Aug-18 23:33N 23°02' E 113°31'661108175.7
2016-Aug-18 23:33N 31°42' E 121°10'5115222.8
2016-Aug-18 23:33N 31°56' E 120°12'3371214415.0
2016-Aug-18 23:33N 37°27' E 121°34'36516044.6
2016-Aug-18 23:32N 31°21' E 121°27'932252.0
2016-Aug-18 23:29N 29°58' E 122°15'611623200.8
2016-Aug-18 23:13N 33°37' W 117°55'61169247.3
2016-Aug-18 22:34N 29°58' E 122°15'93111807.2
2016-Aug-18 22:33N 31°21' E 121°27'370221701.9
2016-Aug-18 22:33N 37°31' E 121°32'58933535582.9
2016-Aug-18 22:33N 33°34' W 117°52'61131833964.5
2016-Aug-18 22:33N 31°42' E 121°10'51363.9
2016-Aug-18 22:25N 31°56' E 120°12'642751.4
2016-Aug-18 21:33N 23°02' E 113°31'9671739959.0
2016-Aug-18 21:33N 37°36' E 121°28'50864577714.6
2016-Aug-18 21:33N 49°18' W 122°53'54261220747.7
2016-Aug-18 21:33N 31°56' E 120°12'1586269.8
2016-Aug-18 21:32N 29°58' E 122°15'935410.0
2016-Aug-18 21:30N 31°21' E 121°27'612099238.9
2016-Aug-18 21:27N 33°27' W 117°46'58976644.2
2016-Aug-18 20:34N 37°44' E 121°30'46840080.5
2016-Aug-18 20:33N 29°58' E 122°15'5430630543.8
2016-Aug-18 20:32N 49°18' W 122°58'5445276067.3
2016-Aug-18 20:31N 29°54' E 121°59'921180.8
2016-Aug-18 20:26N 31°21' E 121°27'655471863.2
2016-Aug-18 20:26N 23°02' E 113°31'0 0.0
2016-Aug-18 19:33N 23°02' E 113°31'683412301794.4
2016-Aug-18 19:33N 33°28' W 117°44'980110288.5
2016-Aug-18 19:33N 49°20' W 122°56'5430296200.3
2016-Aug-18 19:32N 29°58' E 122°15'475569907.0
2016-Aug-18 19:32N 37°51' E 121°32'39093550.9
2016-Aug-18 19:31N 31°21' E 121°27'92869.2
2016-Aug-18 19:25N 29°54' E 121°59'54456314.6
2016-Aug-18 18:33N 49°18' W 122°58'5430977342.8
2016-Aug-18 18:33N 29°58' E 122°15'931560.1
2016-Aug-18 18:29N 31°21' E 121°27'610736461.4
2016-Aug-18 18:19N 33°37' W 117°54'682124679.7
2016-Aug-18 18:03N 23°02' E 113°31'6271277.8
2016-Aug-18 17:33N 29°58' E 122°15'543031125.8
2016-Aug-18 17:23N 49°18' W 122°58'5395190409.8
2016-Aug-18 17:21N 31°21' E 121°27'65522684.4
2016-Aug-18 17:20N 23°02' E 113°31'6142978.8
2016-Aug-18 17:07N 29°54' E 121°59'1425.3
2016-Aug-18 16:33N 29°58' E 122°15'93335469.2
2016-Aug-18 16:33N 31°22' E 121°28'65669448.1
2016-Aug-18 16:33N 23°02' E 113°31'6144773.7
2016-Aug-18 16:25N 29°54' E 121°59'1416.5
2016-Aug-18 15:33N 29°58' E 122°15'62719286.8
2016-Aug-18 15:31N 23°02' E 113°31'65921982.1
2016-Aug-18 15:30N 31°24' E 121°31'659676.0
2016-Aug-18 14:31N 23°02' E 113°31'62713929.4
2016-Aug-18 14:28N 29°58' E 122°15'627684.2
2016-Aug-18 13:33N 23°02' E 113°31'102116410.6
2016-Aug-18 13:30N 38°30' E 121°45'51348609.4
2016-Aug-18 13:29N 29°58' E 122°15'95327.0
2016-Aug-18 13:12N 31°24' E 121°31'6601033.6
2016-Aug-18 12:33N 23°02' E 113°31'66095003.9
2016-Aug-18 12:33N 31°26' E 121°29'2337.7
2016-Aug-18 12:33N 31°26' E 121°30'961738.2
2016-Aug-18 12:29N 29°58' E 122°15'51944510.7
2016-Aug-18 12:29N 38°36' E 121°48'436472.2
2016-Aug-18 11:33N 31°21' E 121°32'9165491.5
2016-Aug-18 11:33N 29°58' E 122°15'525210010.0
2016-Aug-18 11:33N 38°42' E 121°50'43336232.4
2016-Aug-18 11:32N 31°30' E 121°23'66824.6
2016-Aug-18 11:28N 31°56' E 120°12'6167.0
2016-Aug-18 10:33N 31°34' E 121°19'436224143.1
2016-Aug-18 10:33N 38°49' E 121°53'53191076.3
2016-Aug-18 10:33N 29°58' E 122°15'15810372.8
2016-Aug-18 10:32N 31°56' E 120°12'146318.4
2016-Aug-18 10:04N 29°57' E 121°50'2241.3
2016-Aug-18 09:33N 29°58' E 122°15'61543.1
2016-Aug-18 09:33N 29°55' E 122°09'15722654.4
2016-Aug-18 09:32N 31°56' E 120°12'51890.2
2016-Aug-18 09:29N 31°42' E 121°10'5174861.0
2016-Aug-18 09:23N 40°17' E 122°04'620753.4
2016-Aug-18 08:33N 29°58' E 122°15'1192702.1
2016-Aug-18 08:31N 31°42' E 121°10'611071879.2
2016-Aug-18 08:26N 33°37' W 117°55'6150481273.2
2016-Aug-18 08:25N 31°56' E 120°12'5159.0
2016-Aug-18 07:33N 31°42' E 121°10'661216320.4
2016-Aug-18 07:33N 23°02' E 113°31'62737608.8
2016-Aug-18 07:32N 29°58' E 122°15'15816779.0
2016-Aug-18 07:32N 31°56' E 120°12'5082542.8
2016-Aug-18 07:20N 40°16' E 122°05'6225817.3
2016-Aug-18 07:13N 29°54' E 121°58'116175.2
2016-Aug-18 06:33N 31°42' E 121°09'11925135.9
2016-Aug-18 06:33N 29°58' E 122°15'627125372.4
2016-Aug-18 06:33N 23°02' E 113°31'61622631.5
2016-Aug-18 06:31N 29°53' E 122°03'155944.4
2016-Aug-18 06:21N 31°56' E 120°12'0 0.0
2016-Aug-18 05:33N 31°56' E 120°12'513573.4
2016-Aug-18 05:32N 31°42' E 121°10'1189647.9
2016-Aug-18 05:31N 29°53' E 122°03'11384.9
2016-Aug-18 05:29N 29°58' E 122°15'62712132.6
2016-Aug-18 05:26N 23°02' E 113°31'642727.7
2016-Aug-18 04:33N 31°56' E 120°12'6422312646.2
2016-Aug-18 04:33N 23°02' E 113°31'661158652.7
2016-Aug-18 04:33N 31°40' E 121°13'1153935.4
2016-Aug-18 04:31N 29°58' E 122°15'114534.7
2016-Aug-18 04:31N 29°53' E 122°03'1111.6
2016-Aug-18 03:33N 29°58' E 122°15'10939266.9
2016-Aug-18 03:33N 31°35' E 121°18'1091505.0
2016-Aug-18 03:28N 29°53' E 122°03'6163503.6
2016-Aug-18 03:18N 23°02' E 113°31'640127985.6
2016-Aug-18 03:17N 31°58' E 120°05'7263.9
2016-Aug-18 03:16N 31°56' E 120°12'4622183.3
2016-Aug-18 03:03N 24°29' E 118°04'458913.1
2016-Aug-18 02:33N 31°32' E 121°23'1043151.2
2016-Aug-18 02:31N 29°58' E 122°15'40053305.6
2016-Aug-18 02:31N 24°26' E 118°03'46435548.6
2016-Aug-18 02:30N 31°56' E 120°12'6427975.7
2016-Aug-18 02:25N 23°01' E 113°32'1 1.1
2016-Aug-18 01:33N 23°02' E 113°31'62790264.0
2016-Aug-18 01:33N 29°58' E 122°15'10027604.4
2016-Aug-18 01:33N 31°29' E 121°27'462103889.4
2016-Aug-18 01:32N 24°21' E 118°09'65281021811.8
2016-Aug-18 01:32N 33°37' W 117°55'614970499.3
2016-Aug-18 01:27N 31°57' E 120°13'0 3.5
2016-Aug-18 01:19N 31°56' E 120°12'1559302.2
2016-Aug-18 01:18N 29°53' E 122°03'94401.6
2016-Aug-18 01:04N 31°24' E 121°34'93177.5
2016-Aug-18 00:33N 29°58' E 122°15'9613795.9
2016-Aug-18 00:32N 31°26' E 121°31'716713.1
2016-Aug-18 00:32N 31°57' E 120°16'394.8
2016-Aug-18 00:29N 31°56' E 120°12'1551453.4
2016-Aug-18 00:23N 29°53' E 122°03'61610220.3
2016-Aug-18 00:19N 23°02' E 113°31'661862.0
2016-Aug-17 23:33N 31°24' E 121°35'9585571.2
2016-Aug-17 23:33N 29°56' E 122°17'937006.4
2016-Aug-17 23:33N 31°21' E 121°31'761834.8
2016-Aug-17 23:30N 31°56' E 120°12'6424339.0
2016-Aug-17 23:21N 23°02' E 113°31'654822.6
2016-Aug-17 22:33N 31°15' E 121°33'97835.3
2016-Aug-17 22:33N 31°24' E 121°35'44639192.2
2016-Aug-17 22:33N 38°50' E 121°56'1043113736.4
2016-Aug-17 22:32N 23°02' E 113°31'65325563.1
2016-Aug-17 22:31N 32°02' E 120°24'12153.0
2016-Aug-17 22:26N 31°56' E 120°12'1653787.4
2016-Aug-17 22:23N 29°51' E 122°18'100120.1
2016-Aug-17 21:33N 31°24' E 121°35'4381576562.5
2016-Aug-17 21:33N 38°42' E 121°53'531477905.8
2016-Aug-17 21:33N 29°51' E 122°18'625249972.5
2016-Aug-17 21:33N 23°02' E 113°31'64215733.0
2016-Aug-17 21:31N 31°56' E 120°12'155484.0
2016-Aug-17 21:12N 29°53' E 122°03'616963.9
2016-Aug-17 20:33N 23°02' E 113°31'661396816.5
2016-Aug-17 20:33N 31°24' E 121°35'7725221.5
2016-Aug-17 20:33N 31°56' E 120°12'4048609.8
2016-Aug-17 20:30N 38°33' E 121°49'5198818.2
2016-Aug-17 20:27N 29°53' E 122°03'616697.0
2016-Aug-17 19:34N 23°02' E 113°31'661476173.3
2016-Aug-17 19:33N 31°24' E 121°35'96344571.3
2016-Aug-17 19:33N 29°56' E 122°19'1623910.6
2016-Aug-17 19:31N 31°56' E 120°12'615044634.3
2016-Aug-17 19:23N 33°37' W 117°55'584966629.2
2016-Aug-17 19:17N 38°22' E 121°45'419571.1
2016-Aug-17 18:33N 31°24' E 121°35'771155.9
2016-Aug-17 18:29N 31°56' E 120°12'5106598.6
2016-Aug-17 18:25N 23°45' E 117°39'2323043.8
2016-Aug-17 18:20N 23°02' E 113°31'6299469.0
2016-Aug-17 18:16N 29°56' E 122°19'96134.1
2016-Aug-17 17:33N 31°24' E 121°34'9613795.9
2016-Aug-17 17:33N 29°56' E 122°19'45170654.3
2016-Aug-17 17:33N 23°42' E 117°35'44019313.2
2016-Aug-17 17:31N 29°54' E 121°59'614116333.0
2016-Aug-17 17:31N 23°02' E 113°31'64215840.7
2016-Aug-17 17:28N 31°56' E 120°12'7782.4
2016-Aug-17 16:32N 31°24' E 121°34'9611892.3
2016-Aug-17 16:32N 29°56' E 122°19'62994292.5
2016-Aug-17 16:32N 23°02' E 113°31'64212848.1
2016-Aug-17 16:29N 31°56' E 120°12'421043.1
2016-Aug-17 16:26N 31°47' E 121°00'130147.9
2016-Aug-17 15:33N 29°56' E 122°19'6281131106.2
2016-Aug-17 15:33N 23°02' E 113°31'64214101.5
2016-Aug-17 15:31N 31°56' E 120°12'361649260.2
2016-Aug-17 15:31N 37°51' E 121°33'4771644.8
2016-Aug-17 15:13N 29°54' E 121°59'1217.6
2016-Aug-17 14:33N 29°58' E 122°12'1109014.3
2016-Aug-17 14:33N 31°37' E 121°16'366329113.0
2016-Aug-17 14:33N 37°43' E 121°30'973129772.1
2016-Aug-17 14:32N 23°02' E 113°31'64220110.0
2016-Aug-17 14:30N 31°56' E 120°12'642679.2
2016-Aug-17 13:33N 23°02' E 113°31'624149663.9
2016-Aug-17 13:33N 29°59' E 122°08'10151735.4
2016-Aug-17 13:33N 31°32' E 121°22'6419250.8
2016-Aug-17 13:33N 31°56' E 120°12'344348.2
2016-Aug-17 12:34N 37°36' E 121°25'9651157999.6
2016-Aug-17 12:34N 23°02' E 113°31'624224500.5
2016-Aug-17 12:33N 29°59' E 122°08'9616413.9
2016-Aug-17 12:33N 31°29' E 121°27'9899.0
2016-Aug-17 11:33N 29°57' E 122°08'4601657228.0
2016-Aug-17 11:33N 37°36' E 121°25'965868509.6
2016-Aug-17 11:33N 23°02' E 113°31'642154183.7
2016-Aug-17 11:33N 31°56' E 120°12'732897.6
2016-Aug-17 11:32N 31°26' E 121°30'95901.1
2016-Aug-17 11:25N 29°54' E 121°59'613266890.3
2016-Aug-17 11:20N 33°37' W 117°55'61047907.7
2016-Aug-17 10:33N 31°21' E 121°31'3741347689.2
2016-Aug-17 10:33N 37°36' E 121°25'34426387.2
2016-Aug-17 10:33N 31°56' E 120°12'16318305.7
2016-Aug-17 10:32N 29°53' E 122°16'625281080.8
2016-Aug-17 10:32N 23°02' E 113°31'61450235.4
2016-Aug-17 10:31N 29°54' E 121°59'85914.5
2016-Aug-17 10:26N 31°18' E 121°43'378434.1
2016-Aug-17 09:33N 37°36' E 121°25'373149072.4
2016-Aug-17 09:33N 31°23' E 121°34'7792759.6
2016-Aug-17 09:33N 31°56' E 120°12'642136044.4
2016-Aug-17 09:33N 23°02' E 113°31'6821341043.3
2016-Aug-17 09:32N 33°37' W 117°55'6132712058.4
2016-Aug-17 09:31N 29°54' E 121°59'84451.6
2016-Aug-17 09:20N 31°15' E 121°32'931363.1
2016-Aug-17 09:16N 29°51' E 122°18'466658.0
2016-Aug-17 08:33N 37°36' E 121°25'34518238.5
2016-Aug-17 08:32N 31°56' E 120°12'64218355.1
2016-Aug-17 08:30N 23°02' E 113°31'62549998.8
2016-Aug-17 08:29N 29°51' E 122°18'49978165.7
2016-Aug-17 08:29N 38°10' E 121°44'4963031.4
2016-Aug-17 08:19N 29°54' E 121°59'614806.1
2016-Aug-17 07:34N 23°02' E 113°31'965193002.1
2016-Aug-17 07:33N 37°36' E 121°25'46629988.5
2016-Aug-17 07:32N 29°51' E 122°18'17990.2
2016-Aug-17 07:31N 29°54' E 121°59'4917457.0
2016-Aug-17 07:27N 38°05' E 121°53'3786972.1
2016-Aug-17 07:24N 31°56' E 120°12'344409.2
2016-Aug-17 06:34N 37°36' E 121°25'466129180.0
2016-Aug-17 06:33N 29°51' E 122°18'625562450.1
2016-Aug-17 06:33N 23°02' E 113°31'6142622.0
2016-Aug-17 06:19N 29°54' E 121°59'48516155.4
2016-Aug-17 06:17N 37°59' E 122°02'3735441.3
2016-Aug-17 06:13N 31°56' E 120°12'642969.7
2016-Aug-17 05:34N 23°02' E 113°31'62516666.3
2016-Aug-17 05:31N 29°51' E 122°18'1710067.3
2016-Aug-17 05:31N 29°54' E 121°59'15334359.8
2016-Aug-17 05:31N 31°56' E 120°12'371445383.2
2016-Aug-17 05:31N 37°55' E 122°08'4041.3
2016-Aug-17 04:34N 37°36' E 121°25'464104375.5
2016-Aug-17 04:33N 29°54' E 122°17'6264577.2
2016-Aug-17 04:25N 23°02' E 113°31'6423467.4
2016-Aug-17 04:14N 31°56' E 120°12'344509.3
2016-Aug-17 03:33N 37°36' E 121°25'46028547.0
2016-Aug-17 03:32N 29°58' E 122°15'6279248.9
2016-Aug-17 03:28N 23°02' E 113°31'6427708.8
2016-Aug-17 03:23N 31°56' E 120°12'615023728.4
2016-Aug-17 03:08N 33°37' W 117°55'589210266.0
2016-Aug-17 02:33N 37°35' E 121°26'34532638.6
2016-Aug-17 02:33N 31°56' E 120°12'641177456.3
2016-Aug-17 02:33N 23°03' E 113°31'62686694.7
2016-Aug-17 02:32N 29°58' E 122°15'4648517.0
2016-Aug-17 02:29N 37°41' E 122°33'583438891.7
2016-Aug-17 02:20N 33°37' W 117°55'594556621.1
2016-Aug-17 02:14N 38°09' E 119°55'5063312.9
2016-Aug-17 02:04N 29°54' E 122°01'6151195.0
2016-Aug-17 01:33N 23°03' E 113°31'968580742.6
2016-Aug-17 01:33N 37°39' E 121°28'349313817.8
2016-Aug-17 01:33N 31°57' E 120°05'163195805.2
2016-Aug-17 01:33N 29°58' E 122°15'1576283.9
2016-Aug-17 01:32N 31°56' E 120°14'37223523.3
2016-Aug-17 01:31N 38°08' E 120°03'9661011.5
2016-Aug-17 00:34N 23°03' E 113°31'975501523.8
2016-Aug-17 00:33N 37°46' E 121°30'35420243.9
2016-Aug-17 00:32N 32°00' E 119°58'16987085.9
2016-Aug-17 00:32N 29°58' E 122°15'6116917395.0
2016-Aug-17 00:32N 33°37' W 117°55'613238725.9
2016-Aug-17 00:22N 29°54' E 121°59'5004224.1
2016-Aug-17 00:15N 38°06' E 120°15'5 7.1
2016-Aug-16 23:33N 38°05' E 120°21'576820.8
2016-Aug-16 23:33N 37°54' E 121°32'984295112.1
2016-Aug-16 23:33N 23°02' E 113°31'6578865.2
2016-Aug-16 23:28N 31°22' E 121°30'3651310.7
2016-Aug-16 23:12N 37°21' E 122°53'445697.1
2016-Aug-16 22:33N 29°58' E 122°15'485436131.2
2016-Aug-16 22:33N 38°01' E 121°33'991509476.9
2016-Aug-16 22:33N 23°02' E 113°31'98223102.6
2016-Aug-16 22:31N 37°15' E 122°53'12388720.4
2016-Aug-16 22:30N 38°04' E 120°30'494518.7
2016-Aug-16 21:33N 29°58' E 122°15'49224925.0
2016-Aug-16 21:32N 38°02' E 120°37'97328015.3
2016-Aug-16 21:30N 23°02' E 113°31'99850593.7
2016-Aug-16 21:29N 38°08' E 121°35'505526603.7
2016-Aug-16 21:17N 49°18' W 122°54'544831892.6
2016-Aug-16 21:07N 29°54' E 121°59'491870.6
2016-Aug-16 20:33N 38°01' E 120°44'433907.3
2016-Aug-16 20:33N 38°15' E 121°36'49847199.4
2016-Aug-16 20:32N 29°58' E 122°15'54333911999.6
2016-Aug-16 20:32N 49°18' W 122°54'5448417318.0
2016-Aug-16 20:31N 29°54' E 121°59'61414835.6
2016-Aug-16 20:29N 23°02' E 113°31'627678.2
2016-Aug-16 19:33N 29°58' E 122°15'488135004.1
2016-Aug-16 19:33N 38°00' E 120°51'975292610.8
2016-Aug-16 19:33N 23°02' E 113°31'958172460.2
2016-Aug-16 19:33N 36°47' E 122°51'5066588325.1
2016-Aug-16 19:32N 49°18' W 122°54'5041672150.2
2016-Aug-16 19:32N 38°22' E 121°38'3839.6
2016-Aug-16 18:33N 37°59' E 120°59'364327614.4
2016-Aug-16 18:33N 31°57' E 120°14'644257468.2
2016-Aug-16 18:33N 23°02' E 113°31'62749065.4
2016-Aug-16 18:32N 29°58' E 122°15'5433814999.9
2016-Aug-16 18:32N 49°18' W 122°54'503111559.1
2016-Aug-16 18:06N 38°31' E 121°41'515949.6
2016-Aug-16 17:33N 29°58' E 122°15'62770531.0
2016-Aug-16 17:33N 23°02' E 113°31'978125682.6
2016-Aug-16 17:32N 37°56' E 121°08'5084831919.9
2016-Aug-16 17:32N 49°18' W 122°54'502750548.6
2016-Aug-16 17:26N 38°36' E 121°42'7 7.6
2016-Aug-16 16:33N 38°43' E 121°43'526236631.0
2016-Aug-16 16:33N 29°58' E 122°15'47855534.3
2016-Aug-16 16:33N 37°53' E 121°15'5081435518.1
2016-Aug-16 16:32N 49°18' W 122°54'9676329.7
2016-Aug-16 16:23N 33°37' W 117°55'682153613.8
2016-Aug-16 16:15N 23°02' E 113°31'9741397.1
2016-Aug-16 15:33N 37°48' E 121°21'6621499.1
2016-Aug-16 15:33N 38°51' E 121°45'53450550.7
2016-Aug-16 15:33N 29°58' E 122°15'611619623.4
2016-Aug-16 15:14N 33°37' W 117°55'61179069.9
2016-Aug-16 14:33N 29°58' E 122°13'466837952.5
2016-Aug-16 14:33N 37°42' E 121°26'46913191.3
2016-Aug-16 14:31N 29°54' E 121°59'61410093.3
2016-Aug-16 14:28N 23°02' E 113°31'10487093.9
2016-Aug-16 14:19N 39°00' E 121°46'86114.7
2016-Aug-16 13:34N 37°35' E 121°26'45765809.8
2016-Aug-16 13:33N 29°59' E 122°08'62417678.1
2016-Aug-16 13:31N 23°02' E 113°31'9631003.3
2016-Aug-16 12:33N 37°34' E 121°23'456410491.5
2016-Aug-16 12:33N 29°59' E 122°08'6241647.2
2016-Aug-16 12:11N 23°02' E 113°31'6241005.2
2016-Aug-16 11:33N 29°59' E 122°08'624187063.6
2016-Aug-16 11:33N 23°02' E 113°31'96324593.1
2016-Aug-16 11:31N 37°34' E 121°23'462471.6
2016-Aug-16 10:32N 29°54' E 122°11'62242255.9
2016-Aug-16 10:31N 23°02' E 113°31'96317252.1
2016-Aug-16 10:28N 37°34' E 121°23'46110639.0
2016-Aug-16 10:25N 29°54' E 121°59'1213.7
2016-Aug-16 09:33N 29°52' E 122°12'12141.8
2016-Aug-16 09:28N 29°54' E 121°59'46148814.3
2016-Aug-16 09:28N 37°34' E 121°23'96312891.0
2016-Aug-16 09:23N 23°02' E 113°31'622748.2
2016-Aug-16 08:33N 29°52' E 122°12'46410497.5
2016-Aug-16 08:31N 37°34' E 121°23'96355046.6
2016-Aug-16 08:30N 23°01' E 113°32'0 0.0
2016-Aug-16 07:33N 23°01' E 113°32'62117208.5
2016-Aug-16 07:31N 29°52' E 122°12'46410245.0
2016-Aug-16 07:28N 37°34' E 121°23'589432492.9
2016-Aug-16 07:17N 33°37' W 117°55'68209389.5
2016-Aug-16 06:33N 23°01' E 113°32'0 0.0
2016-Aug-16 04:32N 23°01' E 113°32'96375389.5
2016-Aug-16 04:31N 37°34' E 121°23'963986.9
2016-Aug-16 03:32N 23°01' E 113°32'96340805.1
2016-Aug-16 03:31N 37°34' E 121°24'9631003.9
2016-Aug-16 02:33N 23°01' E 113°32'97024252.0
2016-Aug-16 02:31N 37°39' E 121°30'9701012.0
2016-Aug-16 01:33N 23°01' E 113°32'97010518.2
2016-Aug-16 01:28N 37°39' E 121°30'0 0.0
2016-Aug-16 00:31N 37°39' E 121°30'970232804.8
2016-Aug-16 00:31N 23°01' E 113°32'682038485.3
2016-Aug-16 00:20N 33°37' W 117°55'58867600.2
2016-Aug-15 23:34N 37°41' E 121°28'971249761.2
2016-Aug-15 23:33N 23°01' E 113°32'62838347.1
2016-Aug-15 23:32N 29°56' E 122°19'61131158332.3
2016-Aug-15 23:32N 33°37' W 117°55'613253970.1
2016-Aug-15 23:25N 29°54' E 121°59'  

Dump ship's entire track history